<?xml version="1.0" encoding="UTF-8" standalone="no" ?>
<gpx xmlns="http://www.topografix.com/GPX/1/1" xmlns:xsi="http://www.w3.org/2001/XMLSchema-instance" xsi:schemaLocation="http://www.topografix.com/GPX/1/1 http://www.topografix.com/GPX/1/1/gpx.xsd" version="1.1" creator="VisuGPX - https://www.visugpx.com">
  <metadata>
    <name>OMS CHENOVE Marche du vendredi 20 janvier 2012</name>
    <desc><![CDATA[Tour du plateau]]></desc>
  </metadata>
  <trk>
    <name><![CDATA[OMS CHENOVE Marche du vendredi 20 janvier 2012_1]]></name>
    <trkseg>
      <trkpt lat="47.29253" lon="5.00335">
        <ele>293.707</ele>
        <time>2012-01-20T09:04:52Z</time>
      </trkpt>
      <trkpt lat="47.29275" lon="5.0034">
        <ele>295.875</ele>
        <time>2012-01-20T09:05:03Z</time>
      </trkpt>
      <trkpt lat="47.29318" lon="5.00378">
        <ele>302.912</ele>
        <time>2012-01-20T09:05:14Z</time>
      </trkpt>
      <trkpt lat="47.29347" lon="5.00402">
        <ele>295.196</ele>
        <time>2012-01-20T09:05:25Z</time>
      </trkpt>
      <trkpt lat="47.2936" lon="5.00412">
        <ele>296.754</ele>
        <time>2012-01-20T09:05:36Z</time>
      </trkpt>
      <trkpt lat="47.29367" lon="5.00422">
        <ele>297.648</ele>
        <time>2012-01-20T09:05:47Z</time>
      </trkpt>
      <trkpt lat="47.29383" lon="5.00438">
        <ele>300.498</ele>
        <time>2012-01-20T09:05:58Z</time>
      </trkpt>
      <trkpt lat="47.29397" lon="5.00447">
        <ele>305.264</ele>
        <time>2012-01-20T09:06:09Z</time>
      </trkpt>
      <trkpt lat="47.29403" lon="5.0044">
        <ele>312.728</ele>
        <time>2012-01-20T09:06:20Z</time>
      </trkpt>
      <trkpt lat="47.29417" lon="5.00425">
        <ele>319.738</ele>
        <time>2012-01-20T09:06:31Z</time>
      </trkpt>
      <trkpt lat="47.29425" lon="5.00403">
        <ele>320.891</ele>
        <time>2012-01-20T09:06:42Z</time>
      </trkpt>
      <trkpt lat="47.29433" lon="5.00383">
        <ele>321.235</ele>
        <time>2012-01-20T09:06:53Z</time>
      </trkpt>
      <trkpt lat="47.29445" lon="5.00378">
        <ele>324.916</ele>
        <time>2012-01-20T09:07:04Z</time>
      </trkpt>
      <trkpt lat="47.2946" lon="5.00383">
        <ele>323.465</ele>
        <time>2012-01-20T09:07:15Z</time>
      </trkpt>
      <trkpt lat="47.2947" lon="5.00383">
        <ele>324.325</ele>
        <time>2012-01-20T09:07:26Z</time>
      </trkpt>
      <trkpt lat="47.29492" lon="5.00385">
        <ele>331.67</ele>
        <time>2012-01-20T09:07:37Z</time>
      </trkpt>
      <trkpt lat="47.295" lon="5.00375">
        <ele>333.224</ele>
        <time>2012-01-20T09:07:48Z</time>
      </trkpt>
      <trkpt lat="47.29508" lon="5.0035">
        <ele>332.21</ele>
        <time>2012-01-20T09:07:59Z</time>
      </trkpt>
      <trkpt lat="47.29517" lon="5.00328">
        <ele>331.104</ele>
        <time>2012-01-20T09:08:10Z</time>
      </trkpt>
      <trkpt lat="47.29523" lon="5.00307">
        <ele>333.987</ele>
        <time>2012-01-20T09:08:21Z</time>
      </trkpt>
      <trkpt lat="47.29535" lon="5.00287">
        <ele>339.11</ele>
        <time>2012-01-20T09:08:32Z</time>
      </trkpt>
      <trkpt lat="47.29545" lon="5.00265">
        <ele>341.125</ele>
        <time>2012-01-20T09:08:43Z</time>
      </trkpt>
      <trkpt lat="47.29552" lon="5.00248">
        <ele>341.446</ele>
        <time>2012-01-20T09:08:54Z</time>
      </trkpt>
      <trkpt lat="47.29567" lon="5.00237">
        <ele>343.661</ele>
        <time>2012-01-20T09:09:05Z</time>
      </trkpt>
      <trkpt lat="47.29582" lon="5.00227">
        <ele>344.872</ele>
        <time>2012-01-20T09:09:16Z</time>
      </trkpt>
      <trkpt lat="47.2959" lon="5.00213">
        <ele>345.066</ele>
        <time>2012-01-20T09:09:27Z</time>
      </trkpt>
      <trkpt lat="47.296" lon="5.00197">
        <ele>344.279</ele>
        <time>2012-01-20T09:09:38Z</time>
      </trkpt>
      <trkpt lat="47.29603" lon="5.00178">
        <ele>343.792</ele>
        <time>2012-01-20T09:09:49Z</time>
      </trkpt>
      <trkpt lat="47.29615" lon="5.00157">
        <ele>343.912</ele>
        <time>2012-01-20T09:10:00Z</time>
      </trkpt>
      <trkpt lat="47.29623" lon="5.00135">
        <ele>344.838</ele>
        <time>2012-01-20T09:10:11Z</time>
      </trkpt>
      <trkpt lat="47.29632" lon="5.00117">
        <ele>346.92</ele>
        <time>2012-01-20T09:10:22Z</time>
      </trkpt>
      <trkpt lat="47.2962" lon="5.00078">
        <ele>301.89</ele>
        <time>2012-01-20T09:10:33Z</time>
      </trkpt>
      <trkpt lat="47.29623" lon="5.00065">
        <ele>285.081</ele>
        <time>2012-01-20T09:10:44Z</time>
      </trkpt>
      <trkpt lat="47.29635" lon="5.00068">
        <ele>285.77</ele>
        <time>2012-01-20T09:10:55Z</time>
      </trkpt>
      <trkpt lat="47.29652" lon="5.00072">
        <ele>284.737</ele>
        <time>2012-01-20T09:11:06Z</time>
      </trkpt>
      <trkpt lat="47.29665" lon="5.0008">
        <ele>282.261</ele>
        <time>2012-01-20T09:11:17Z</time>
      </trkpt>
      <trkpt lat="47.29682" lon="5.00088">
        <ele>283.056</ele>
        <time>2012-01-20T09:11:28Z</time>
      </trkpt>
      <trkpt lat="47.29695" lon="5.00093">
        <ele>283.352</ele>
        <time>2012-01-20T09:11:39Z</time>
      </trkpt>
      <trkpt lat="47.2971" lon="5.001">
        <ele>282.868</ele>
        <time>2012-01-20T09:11:50Z</time>
      </trkpt>
      <trkpt lat="47.29727" lon="5.001">
        <ele>284.978</ele>
        <time>2012-01-20T09:12:01Z</time>
      </trkpt>
      <trkpt lat="47.29742" lon="5.00103">
        <ele>284.881</ele>
        <time>2012-01-20T09:12:12Z</time>
      </trkpt>
      <trkpt lat="47.29752" lon="5.00107">
        <ele>285.921</ele>
        <time>2012-01-20T09:12:23Z</time>
      </trkpt>
      <trkpt lat="47.29765" lon="5.00113">
        <ele>286.33</ele>
        <time>2012-01-20T09:12:34Z</time>
      </trkpt>
      <trkpt lat="47.29783" lon="5.00122">
        <ele>289.125</ele>
        <time>2012-01-20T09:12:45Z</time>
      </trkpt>
      <trkpt lat="47.29802" lon="5.0012">
        <ele>289.95</ele>
        <time>2012-01-20T09:12:56Z</time>
      </trkpt>
      <trkpt lat="47.29817" lon="5.0012">
        <ele>288.961</ele>
        <time>2012-01-20T09:13:07Z</time>
      </trkpt>
      <trkpt lat="47.2983" lon="5.00123">
        <ele>286.483</ele>
        <time>2012-01-20T09:13:18Z</time>
      </trkpt>
      <trkpt lat="47.29848" lon="5.00128">
        <ele>288.028</ele>
        <time>2012-01-20T09:13:29Z</time>
      </trkpt>
      <trkpt lat="47.29863" lon="5.00132">
        <ele>287.779</ele>
        <time>2012-01-20T09:13:40Z</time>
      </trkpt>
      <trkpt lat="47.29875" lon="5.00133">
        <ele>289.839</ele>
        <time>2012-01-20T09:13:51Z</time>
      </trkpt>
      <trkpt lat="47.29892" lon="5.00132">
        <ele>290.246</ele>
        <time>2012-01-20T09:14:02Z</time>
      </trkpt>
      <trkpt lat="47.29908" lon="5.00132">
        <ele>290.631</ele>
        <time>2012-01-20T09:14:13Z</time>
      </trkpt>
      <trkpt lat="47.2992" lon="5.00132">
        <ele>290.057</ele>
        <time>2012-01-20T09:14:24Z</time>
      </trkpt>
      <trkpt lat="47.29938" lon="5.00132">
        <ele>290.045</ele>
        <time>2012-01-20T09:14:35Z</time>
      </trkpt>
      <trkpt lat="47.29953" lon="5.00132">
        <ele>290.832</ele>
        <time>2012-01-20T09:14:46Z</time>
      </trkpt>
      <trkpt lat="47.29962" lon="5.00132">
        <ele>290.731</ele>
        <time>2012-01-20T09:14:57Z</time>
      </trkpt>
      <trkpt lat="47.29975" lon="5.00132">
        <ele>290.693</ele>
        <time>2012-01-20T09:15:08Z</time>
      </trkpt>
      <trkpt lat="47.29987" lon="5.00135">
        <ele>288.909</ele>
        <time>2012-01-20T09:15:19Z</time>
      </trkpt>
      <trkpt lat="47.29997" lon="5.00133">
        <ele>288.506</ele>
        <time>2012-01-20T09:15:30Z</time>
      </trkpt>
      <trkpt lat="47.30008" lon="5.00143">
        <ele>288.153</ele>
        <time>2012-01-20T09:15:41Z</time>
      </trkpt>
      <trkpt lat="47.30025" lon="5.00153">
        <ele>287.156</ele>
        <time>2012-01-20T09:15:52Z</time>
      </trkpt>
      <trkpt lat="47.30037" lon="5.00155">
        <ele>289.685</ele>
        <time>2012-01-20T09:16:03Z</time>
      </trkpt>
      <trkpt lat="47.3004" lon="5.0016">
        <ele>289.557</ele>
        <time>2012-01-20T09:16:14Z</time>
      </trkpt>
      <trkpt lat="47.30055" lon="5.00175">
        <ele>289.267</ele>
        <time>2012-01-20T09:16:25Z</time>
      </trkpt>
      <trkpt lat="47.30075" lon="5.00188">
        <ele>290.104</ele>
        <time>2012-01-20T09:16:36Z</time>
      </trkpt>
      <trkpt lat="47.30093" lon="5.00208">
        <ele>292.514</ele>
        <time>2012-01-20T09:16:47Z</time>
      </trkpt>
      <trkpt lat="47.30107" lon="5.00222">
        <ele>292.866</ele>
        <time>2012-01-20T09:16:58Z</time>
      </trkpt>
      <trkpt lat="47.30123" lon="5.0023">
        <ele>294.45</ele>
        <time>2012-01-20T09:17:09Z</time>
      </trkpt>
      <trkpt lat="47.30133" lon="5.00232">
        <ele>296.049</ele>
        <time>2012-01-20T09:17:20Z</time>
      </trkpt>
      <trkpt lat="47.30153" lon="5.00245">
        <ele>295.903</ele>
        <time>2012-01-20T09:17:31Z</time>
      </trkpt>
      <trkpt lat="47.30172" lon="5.00262">
        <ele>292.073</ele>
        <time>2012-01-20T09:17:42Z</time>
      </trkpt>
      <trkpt lat="47.3019" lon="5.00265">
        <ele>295.116</ele>
        <time>2012-01-20T09:17:53Z</time>
      </trkpt>
      <trkpt lat="47.30207" lon="5.00257">
        <ele>295.712</ele>
        <time>2012-01-20T09:18:04Z</time>
      </trkpt>
      <trkpt lat="47.3022" lon="5.0026">
        <ele>296.528</ele>
        <time>2012-01-20T09:18:15Z</time>
      </trkpt>
      <trkpt lat="47.30238" lon="5.00263">
        <ele>295.786</ele>
        <time>2012-01-20T09:18:26Z</time>
      </trkpt>
      <trkpt lat="47.30255" lon="5.00265">
        <ele>295.752</ele>
        <time>2012-01-20T09:18:37Z</time>
      </trkpt>
      <trkpt lat="47.30275" lon="5.00267">
        <ele>298.633</ele>
        <time>2012-01-20T09:18:48Z</time>
      </trkpt>
      <trkpt lat="47.30292" lon="5.00272">
        <ele>300.561</ele>
        <time>2012-01-20T09:18:59Z</time>
      </trkpt>
      <trkpt lat="47.30305" lon="5.00275">
        <ele>302.943</ele>
        <time>2012-01-20T09:19:10Z</time>
      </trkpt>
      <trkpt lat="47.30317" lon="5.00272">
        <ele>306.005</ele>
        <time>2012-01-20T09:19:21Z</time>
      </trkpt>
      <trkpt lat="47.30333" lon="5.00263">
        <ele>307.07</ele>
        <time>2012-01-20T09:19:32Z</time>
      </trkpt>
      <trkpt lat="47.30345" lon="5.00255">
        <ele>309.876</ele>
        <time>2012-01-20T09:19:43Z</time>
      </trkpt>
      <trkpt lat="47.30363" lon="5.00255">
        <ele>308.564</ele>
        <time>2012-01-20T09:19:54Z</time>
      </trkpt>
      <trkpt lat="47.3038" lon="5.00248">
        <ele>305.719</ele>
        <time>2012-01-20T09:20:05Z</time>
      </trkpt>
      <trkpt lat="47.30397" lon="5.00238">
        <ele>304.743</ele>
        <time>2012-01-20T09:20:16Z</time>
      </trkpt>
      <trkpt lat="47.30415" lon="5.00233">
        <ele>305.524</ele>
        <time>2012-01-20T09:20:27Z</time>
      </trkpt>
      <trkpt lat="47.30433" lon="5.0023">
        <ele>308.764</ele>
        <time>2012-01-20T09:20:38Z</time>
      </trkpt>
      <trkpt lat="47.30448" lon="5.0023">
        <ele>311.547</ele>
        <time>2012-01-20T09:20:49Z</time>
      </trkpt>
      <trkpt lat="47.3045" lon="5.0023">
        <ele>312.14</ele>
        <time>2012-01-20T09:21:00Z</time>
      </trkpt>
      <trkpt lat="47.3045" lon="5.0023">
        <ele>311.935</ele>
        <time>2012-01-20T09:21:11Z</time>
      </trkpt>
      <trkpt lat="47.3045" lon="5.0023">
        <ele>311.712</ele>
        <time>2012-01-20T09:21:22Z</time>
      </trkpt>
      <trkpt lat="47.3045" lon="5.0023">
        <ele>311.712</ele>
        <time>2012-01-20T09:21:33Z</time>
      </trkpt>
      <trkpt lat="47.30452" lon="5.0023">
        <ele>312.614</ele>
        <time>2012-01-20T09:21:44Z</time>
      </trkpt>
      <trkpt lat="47.30452" lon="5.0023">
        <ele>312.614</ele>
        <time>2012-01-20T09:21:55Z</time>
      </trkpt>
      <trkpt lat="47.30452" lon="5.0023">
        <ele>312.698</ele>
        <time>2012-01-20T09:22:06Z</time>
      </trkpt>
      <trkpt lat="47.30465" lon="5.00223">
        <ele>314.355</ele>
        <time>2012-01-20T09:22:17Z</time>
      </trkpt>
      <trkpt lat="47.30483" lon="5.00222">
        <ele>311.673</ele>
        <time>2012-01-20T09:22:28Z</time>
      </trkpt>
      <trkpt lat="47.30497" lon="5.00218">
        <ele>311.437</ele>
        <time>2012-01-20T09:22:39Z</time>
      </trkpt>
      <trkpt lat="47.30513" lon="5.00215">
        <ele>311.764</ele>
        <time>2012-01-20T09:22:50Z</time>
      </trkpt>
      <trkpt lat="47.30532" lon="5.00208">
        <ele>309.086</ele>
        <time>2012-01-20T09:23:01Z</time>
      </trkpt>
      <trkpt lat="47.30547" lon="5.00203">
        <ele>307.958</ele>
        <time>2012-01-20T09:23:12Z</time>
      </trkpt>
      <trkpt lat="47.30565" lon="5.00203">
        <ele>306.457</ele>
        <time>2012-01-20T09:23:23Z</time>
      </trkpt>
      <trkpt lat="47.3058" lon="5.002">
        <ele>304.43</ele>
        <time>2012-01-20T09:23:34Z</time>
      </trkpt>
      <trkpt lat="47.30597" lon="5.00195">
        <ele>305.864</ele>
        <time>2012-01-20T09:23:45Z</time>
      </trkpt>
      <trkpt lat="47.30615" lon="5.00192">
        <ele>304.008</ele>
        <time>2012-01-20T09:23:56Z</time>
      </trkpt>
      <trkpt lat="47.30627" lon="5.00192">
        <ele>303.999</ele>
        <time>2012-01-20T09:24:07Z</time>
      </trkpt>
      <trkpt lat="47.30635" lon="5.00193">
        <ele>304.374</ele>
        <time>2012-01-20T09:24:18Z</time>
      </trkpt>
      <trkpt lat="47.30652" lon="5.00198">
        <ele>302.057</ele>
        <time>2012-01-20T09:24:29Z</time>
      </trkpt>
      <trkpt lat="47.30668" lon="5.00203">
        <ele>300.05</ele>
        <time>2012-01-20T09:24:40Z</time>
      </trkpt>
      <trkpt lat="47.30687" lon="5.00212">
        <ele>296.933</ele>
        <time>2012-01-20T09:24:51Z</time>
      </trkpt>
      <trkpt lat="47.30702" lon="5.00217">
        <ele>295.876</ele>
        <time>2012-01-20T09:25:02Z</time>
      </trkpt>
      <trkpt lat="47.30718" lon="5.00222">
        <ele>296.837</ele>
        <time>2012-01-20T09:25:13Z</time>
      </trkpt>
      <trkpt lat="47.30735" lon="5.00222">
        <ele>294.842</ele>
        <time>2012-01-20T09:25:24Z</time>
      </trkpt>
      <trkpt lat="47.30755" lon="5.00217">
        <ele>294.298</ele>
        <time>2012-01-20T09:25:35Z</time>
      </trkpt>
      <trkpt lat="47.30772" lon="5.00207">
        <ele>292.667</ele>
        <time>2012-01-20T09:25:46Z</time>
      </trkpt>
      <trkpt lat="47.30788" lon="5.00202">
        <ele>289.062</ele>
        <time>2012-01-20T09:25:57Z</time>
      </trkpt>
      <trkpt lat="47.30807" lon="5.00195">
        <ele>286.048</ele>
        <time>2012-01-20T09:26:08Z</time>
      </trkpt>
      <trkpt lat="47.30823" lon="5.0019">
        <ele>283.906</ele>
        <time>2012-01-20T09:26:19Z</time>
      </trkpt>
      <trkpt lat="47.30843" lon="5.00187">
        <ele>281.352</ele>
        <time>2012-01-20T09:26:30Z</time>
      </trkpt>
      <trkpt lat="47.3086" lon="5.00183">
        <ele>277.28</ele>
        <time>2012-01-20T09:26:41Z</time>
      </trkpt>
      <trkpt lat="47.30878" lon="5.00182">
        <ele>274.321</ele>
        <time>2012-01-20T09:26:52Z</time>
      </trkpt>
      <trkpt lat="47.30895" lon="5.00173">
        <ele>272.057</ele>
        <time>2012-01-20T09:27:03Z</time>
      </trkpt>
      <trkpt lat="47.30908" lon="5.0016">
        <ele>272.309</ele>
        <time>2012-01-20T09:27:14Z</time>
      </trkpt>
      <trkpt lat="47.30923" lon="5.00157">
        <ele>267.891</ele>
        <time>2012-01-20T09:27:25Z</time>
      </trkpt>
      <trkpt lat="47.30935" lon="5.00155">
        <ele>267.028</ele>
        <time>2012-01-20T09:27:36Z</time>
      </trkpt>
      <trkpt lat="47.30943" lon="5.00137">
        <ele>266.528</ele>
        <time>2012-01-20T09:27:47Z</time>
      </trkpt>
      <trkpt lat="47.30955" lon="5.00118">
        <ele>265.734</ele>
        <time>2012-01-20T09:27:58Z</time>
      </trkpt>
      <trkpt lat="47.30968" lon="5.00122">
        <ele>266.692</ele>
        <time>2012-01-20T09:28:09Z</time>
      </trkpt>
      <trkpt lat="47.30982" lon="5.00142">
        <ele>268.3</ele>
        <time>2012-01-20T09:28:20Z</time>
      </trkpt>
      <trkpt lat="47.30988" lon="5.0016">
        <ele>269.733</ele>
        <time>2012-01-20T09:28:31Z</time>
      </trkpt>
      <trkpt lat="47.30998" lon="5.0018">
        <ele>269.803</ele>
        <time>2012-01-20T09:28:42Z</time>
      </trkpt>
      <trkpt lat="47.31003" lon="5.00202">
        <ele>270.072</ele>
        <time>2012-01-20T09:28:53Z</time>
      </trkpt>
      <trkpt lat="47.31012" lon="5.00223">
        <ele>268.803</ele>
        <time>2012-01-20T09:29:04Z</time>
      </trkpt>
      <trkpt lat="47.31022" lon="5.00245">
        <ele>267.007</ele>
        <time>2012-01-20T09:29:15Z</time>
      </trkpt>
      <trkpt lat="47.31032" lon="5.00263">
        <ele>266.784</ele>
        <time>2012-01-20T09:29:26Z</time>
      </trkpt>
      <trkpt lat="47.31043" lon="5.00282">
        <ele>267.263</ele>
        <time>2012-01-20T09:29:37Z</time>
      </trkpt>
      <trkpt lat="47.31057" lon="5.00295">
        <ele>266.959</ele>
        <time>2012-01-20T09:29:48Z</time>
      </trkpt>
      <trkpt lat="47.31068" lon="5.00307">
        <ele>269.069</ele>
        <time>2012-01-20T09:29:59Z</time>
      </trkpt>
      <trkpt lat="47.31083" lon="5.0032">
        <ele>269.821</ele>
        <time>2012-01-20T09:30:10Z</time>
      </trkpt>
      <trkpt lat="47.3109" lon="5.00333">
        <ele>269.322</ele>
        <time>2012-01-20T09:30:21Z</time>
      </trkpt>
      <trkpt lat="47.31102" lon="5.00352">
        <ele>267.715</ele>
        <time>2012-01-20T09:30:32Z</time>
      </trkpt>
      <trkpt lat="47.31113" lon="5.00372">
        <ele>267.953</ele>
        <time>2012-01-20T09:30:43Z</time>
      </trkpt>
      <trkpt lat="47.31128" lon="5.00388">
        <ele>267.889</ele>
        <time>2012-01-20T09:30:54Z</time>
      </trkpt>
      <trkpt lat="47.31142" lon="5.00405">
        <ele>267.568</ele>
        <time>2012-01-20T09:31:05Z</time>
      </trkpt>
      <trkpt lat="47.31152" lon="5.00423">
        <ele>268.045</ele>
        <time>2012-01-20T09:31:16Z</time>
      </trkpt>
      <trkpt lat="47.31163" lon="5.00442">
        <ele>271.209</ele>
        <time>2012-01-20T09:31:27Z</time>
      </trkpt>
      <trkpt lat="47.31182" lon="5.0044">
        <ele>272.709</ele>
        <time>2012-01-20T09:31:38Z</time>
      </trkpt>
      <trkpt lat="47.31197" lon="5.0044">
        <ele>270.892</ele>
        <time>2012-01-20T09:31:49Z</time>
      </trkpt>
      <trkpt lat="47.3121" lon="5.00438">
        <ele>269.484</ele>
        <time>2012-01-20T09:32:00Z</time>
      </trkpt>
      <trkpt lat="47.31227" lon="5.00425">
        <ele>269.666</ele>
        <time>2012-01-20T09:32:11Z</time>
      </trkpt>
      <trkpt lat="47.3124" lon="5.00418">
        <ele>268.45</ele>
        <time>2012-01-20T09:32:22Z</time>
      </trkpt>
      <trkpt lat="47.31248" lon="5.00405">
        <ele>267.356</ele>
        <time>2012-01-20T09:32:33Z</time>
      </trkpt>
      <trkpt lat="47.31252" lon="5.00385">
        <ele>269.169</ele>
        <time>2012-01-20T09:32:44Z</time>
      </trkpt>
      <trkpt lat="47.31255" lon="5.00367">
        <ele>268.909</ele>
        <time>2012-01-20T09:32:55Z</time>
      </trkpt>
      <trkpt lat="47.3126" lon="5.00358">
        <ele>268.578</ele>
        <time>2012-01-20T09:33:06Z</time>
      </trkpt>
      <trkpt lat="47.31268" lon="5.00337">
        <ele>272.536</ele>
        <time>2012-01-20T09:33:17Z</time>
      </trkpt>
      <trkpt lat="47.31273" lon="5.0031">
        <ele>276.772</ele>
        <time>2012-01-20T09:33:28Z</time>
      </trkpt>
      <trkpt lat="47.3127" lon="5.00297">
        <ele>275.922</ele>
        <time>2012-01-20T09:33:39Z</time>
      </trkpt>
      <trkpt lat="47.31267" lon="5.00268">
        <ele>277.651</ele>
        <time>2012-01-20T09:33:50Z</time>
      </trkpt>
      <trkpt lat="47.31265" lon="5.0024">
        <ele>275.73</ele>
        <time>2012-01-20T09:34:01Z</time>
      </trkpt>
      <trkpt lat="47.31268" lon="5.00215">
        <ele>277.479</ele>
        <time>2012-01-20T09:34:12Z</time>
      </trkpt>
      <trkpt lat="47.31272" lon="5.00192">
        <ele>277.322</ele>
        <time>2012-01-20T09:34:23Z</time>
      </trkpt>
      <trkpt lat="47.31275" lon="5.0017">
        <ele>276.417</ele>
        <time>2012-01-20T09:34:34Z</time>
      </trkpt>
      <trkpt lat="47.31282" lon="5.00147">
        <ele>274.365</ele>
        <time>2012-01-20T09:34:45Z</time>
      </trkpt>
      <trkpt lat="47.3129" lon="5.00127">
        <ele>276.351</ele>
        <time>2012-01-20T09:34:56Z</time>
      </trkpt>
      <trkpt lat="47.313" lon="5.00108">
        <ele>277.305</ele>
        <time>2012-01-20T09:35:07Z</time>
      </trkpt>
      <trkpt lat="47.31305" lon="5.00092">
        <ele>277.791</ele>
        <time>2012-01-20T09:35:18Z</time>
      </trkpt>
      <trkpt lat="47.31312" lon="5.00065">
        <ele>277.919</ele>
        <time>2012-01-20T09:35:29Z</time>
      </trkpt>
      <trkpt lat="47.31315" lon="5.00045">
        <ele>278.216</ele>
        <time>2012-01-20T09:35:40Z</time>
      </trkpt>
      <trkpt lat="47.31313" lon="5.00018">
        <ele>280.576</ele>
        <time>2012-01-20T09:35:51Z</time>
      </trkpt>
      <trkpt lat="47.31313" lon="4.99992">
        <ele>278.937</ele>
        <time>2012-01-20T09:36:02Z</time>
      </trkpt>
      <trkpt lat="47.31313" lon="4.99972">
        <ele>277.636</ele>
        <time>2012-01-20T09:36:13Z</time>
      </trkpt>
      <trkpt lat="47.31315" lon="4.99952">
        <ele>278.541</ele>
        <time>2012-01-20T09:36:24Z</time>
      </trkpt>
      <trkpt lat="47.31318" lon="4.9993">
        <ele>281.464</ele>
        <time>2012-01-20T09:36:35Z</time>
      </trkpt>
      <trkpt lat="47.31322" lon="4.99915">
        <ele>285.514</ele>
        <time>2012-01-20T09:36:46Z</time>
      </trkpt>
      <trkpt lat="47.31325" lon="4.999">
        <ele>285.667</ele>
        <time>2012-01-20T09:36:57Z</time>
      </trkpt>
      <trkpt lat="47.31327" lon="4.99885">
        <ele>287.258</ele>
        <time>2012-01-20T09:37:08Z</time>
      </trkpt>
      <trkpt lat="47.31333" lon="4.99858">
        <ele>286.867</ele>
        <time>2012-01-20T09:37:19Z</time>
      </trkpt>
      <trkpt lat="47.31335" lon="4.99823">
        <ele>288.733</ele>
        <time>2012-01-20T09:37:30Z</time>
      </trkpt>
      <trkpt lat="47.3134" lon="4.99802">
        <ele>290.988</ele>
        <time>2012-01-20T09:37:41Z</time>
      </trkpt>
      <trkpt lat="47.31343" lon="4.99783">
        <ele>291.621</ele>
        <time>2012-01-20T09:37:52Z</time>
      </trkpt>
      <trkpt lat="47.31345" lon="4.99758">
        <ele>289.849</ele>
        <time>2012-01-20T09:38:03Z</time>
      </trkpt>
      <trkpt lat="47.31347" lon="4.99737">
        <ele>292.056</ele>
        <time>2012-01-20T09:38:14Z</time>
      </trkpt>
      <trkpt lat="47.31352" lon="4.99713">
        <ele>293.3</ele>
        <time>2012-01-20T09:38:25Z</time>
      </trkpt>
      <trkpt lat="47.31355" lon="4.99688">
        <ele>295.831</ele>
        <time>2012-01-20T09:38:36Z</time>
      </trkpt>
      <trkpt lat="47.31358" lon="4.99663">
        <ele>298.618</ele>
        <time>2012-01-20T09:38:47Z</time>
      </trkpt>
      <trkpt lat="47.3136" lon="4.99638">
        <ele>296.586</ele>
        <time>2012-01-20T09:38:58Z</time>
      </trkpt>
      <trkpt lat="47.31363" lon="4.9962">
        <ele>298.272</ele>
        <time>2012-01-20T09:39:09Z</time>
      </trkpt>
      <trkpt lat="47.31367" lon="4.99597">
        <ele>300.167</ele>
        <time>2012-01-20T09:39:20Z</time>
      </trkpt>
      <trkpt lat="47.31372" lon="4.99578">
        <ele>302.336</ele>
        <time>2012-01-20T09:39:31Z</time>
      </trkpt>
      <trkpt lat="47.31375" lon="4.9955">
        <ele>304.135</ele>
        <time>2012-01-20T09:39:42Z</time>
      </trkpt>
      <trkpt lat="47.31377" lon="4.99525">
        <ele>303.649</ele>
        <time>2012-01-20T09:39:53Z</time>
      </trkpt>
      <trkpt lat="47.3138" lon="4.99503">
        <ele>303.762</ele>
        <time>2012-01-20T09:40:04Z</time>
      </trkpt>
      <trkpt lat="47.31383" lon="4.99482">
        <ele>304.864</ele>
        <time>2012-01-20T09:40:15Z</time>
      </trkpt>
      <trkpt lat="47.31383" lon="4.99458">
        <ele>307.598</ele>
        <time>2012-01-20T09:40:26Z</time>
      </trkpt>
      <trkpt lat="47.31383" lon="4.99435">
        <ele>310.387</ele>
        <time>2012-01-20T09:40:37Z</time>
      </trkpt>
      <trkpt lat="47.31383" lon="4.99408">
        <ele>310.43</ele>
        <time>2012-01-20T09:40:48Z</time>
      </trkpt>
      <trkpt lat="47.31382" lon="4.99387">
        <ele>313.505</ele>
        <time>2012-01-20T09:40:59Z</time>
      </trkpt>
      <trkpt lat="47.3138" lon="4.99362">
        <ele>315.126</ele>
        <time>2012-01-20T09:41:10Z</time>
      </trkpt>
      <trkpt lat="47.31378" lon="4.9934">
        <ele>313.733</ele>
        <time>2012-01-20T09:41:21Z</time>
      </trkpt>
      <trkpt lat="47.31372" lon="4.99317">
        <ele>315.294</ele>
        <time>2012-01-20T09:41:32Z</time>
      </trkpt>
      <trkpt lat="47.3137" lon="4.99293">
        <ele>316.138</ele>
        <time>2012-01-20T09:41:43Z</time>
      </trkpt>
      <trkpt lat="47.3137" lon="4.9927">
        <ele>316.33</ele>
        <time>2012-01-20T09:41:54Z</time>
      </trkpt>
      <trkpt lat="47.31367" lon="4.99248">
        <ele>317.872</ele>
        <time>2012-01-20T09:42:05Z</time>
      </trkpt>
      <trkpt lat="47.31362" lon="4.99225">
        <ele>320.106</ele>
        <time>2012-01-20T09:42:16Z</time>
      </trkpt>
      <trkpt lat="47.31353" lon="4.99203">
        <ele>321.838</ele>
        <time>2012-01-20T09:42:27Z</time>
      </trkpt>
      <trkpt lat="47.31342" lon="4.9918">
        <ele>322.301</ele>
        <time>2012-01-20T09:42:38Z</time>
      </trkpt>
      <trkpt lat="47.31332" lon="4.99163">
        <ele>325.683</ele>
        <time>2012-01-20T09:42:49Z</time>
      </trkpt>
      <trkpt lat="47.3132" lon="4.99147">
        <ele>328.335</ele>
        <time>2012-01-20T09:43:00Z</time>
      </trkpt>
      <trkpt lat="47.31307" lon="4.99132">
        <ele>327.701</ele>
        <time>2012-01-20T09:43:11Z</time>
      </trkpt>
      <trkpt lat="47.31297" lon="4.99113">
        <ele>328.625</ele>
        <time>2012-01-20T09:43:22Z</time>
      </trkpt>
      <trkpt lat="47.31292" lon="4.9909">
        <ele>329.807</ele>
        <time>2012-01-20T09:43:33Z</time>
      </trkpt>
      <trkpt lat="47.31285" lon="4.99073">
        <ele>329.772</ele>
        <time>2012-01-20T09:43:44Z</time>
      </trkpt>
      <trkpt lat="47.3128" lon="4.99053">
        <ele>332.401</ele>
        <time>2012-01-20T09:43:55Z</time>
      </trkpt>
      <trkpt lat="47.31263" lon="4.99057">
        <ele>336.383</ele>
        <time>2012-01-20T09:44:06Z</time>
      </trkpt>
      <trkpt lat="47.31253" lon="4.99053">
        <ele>339.442</ele>
        <time>2012-01-20T09:44:17Z</time>
      </trkpt>
      <trkpt lat="47.3124" lon="4.99035">
        <ele>342.361</ele>
        <time>2012-01-20T09:44:28Z</time>
      </trkpt>
      <trkpt lat="47.31228" lon="4.99018">
        <ele>345.956</ele>
        <time>2012-01-20T09:44:39Z</time>
      </trkpt>
      <trkpt lat="47.31218" lon="4.98998">
        <ele>348.432</ele>
        <time>2012-01-20T09:44:50Z</time>
      </trkpt>
      <trkpt lat="47.31212" lon="4.98978">
        <ele>348.972</ele>
        <time>2012-01-20T09:45:01Z</time>
      </trkpt>
      <trkpt lat="47.31207" lon="4.98955">
        <ele>352.598</ele>
        <time>2012-01-20T09:45:12Z</time>
      </trkpt>
      <trkpt lat="47.31197" lon="4.98945">
        <ele>353.928</ele>
        <time>2012-01-20T09:45:23Z</time>
      </trkpt>
      <trkpt lat="47.31187" lon="4.98932">
        <ele>355.145</ele>
        <time>2012-01-20T09:45:34Z</time>
      </trkpt>
      <trkpt lat="47.31175" lon="4.98922">
        <ele>354.319</ele>
        <time>2012-01-20T09:45:45Z</time>
      </trkpt>
      <trkpt lat="47.31167" lon="4.98908">
        <ele>355.279</ele>
        <time>2012-01-20T09:45:56Z</time>
      </trkpt>
      <trkpt lat="47.31148" lon="4.98897">
        <ele>354.674</ele>
        <time>2012-01-20T09:46:07Z</time>
      </trkpt>
      <trkpt lat="47.31137" lon="4.98883">
        <ele>351.947</ele>
        <time>2012-01-20T09:46:18Z</time>
      </trkpt>
      <trkpt lat="47.3112" lon="4.98868">
        <ele>351.11</ele>
        <time>2012-01-20T09:46:29Z</time>
      </trkpt>
      <trkpt lat="47.31102" lon="4.98855">
        <ele>350.806</ele>
        <time>2012-01-20T09:46:40Z</time>
      </trkpt>
      <trkpt lat="47.31085" lon="4.98842">
        <ele>349.233</ele>
        <time>2012-01-20T09:46:51Z</time>
      </trkpt>
      <trkpt lat="47.3107" lon="4.98828">
        <ele>350.043</ele>
        <time>2012-01-20T09:47:02Z</time>
      </trkpt>
      <trkpt lat="47.31058" lon="4.98813">
        <ele>351.364</ele>
        <time>2012-01-20T09:47:13Z</time>
      </trkpt>
      <trkpt lat="47.31047" lon="4.988">
        <ele>351.342</ele>
        <time>2012-01-20T09:47:24Z</time>
      </trkpt>
      <trkpt lat="47.31035" lon="4.9878">
        <ele>351.961</ele>
        <time>2012-01-20T09:47:35Z</time>
      </trkpt>
      <trkpt lat="47.31028" lon="4.98765">
        <ele>353.91</ele>
        <time>2012-01-20T09:47:46Z</time>
      </trkpt>
      <trkpt lat="47.31023" lon="4.98758">
        <ele>354.23</ele>
        <time>2012-01-20T09:47:57Z</time>
      </trkpt>
      <trkpt lat="47.31022" lon="4.98757">
        <ele>354.241</ele>
        <time>2012-01-20T09:48:08Z</time>
      </trkpt>
      <trkpt lat="47.31022" lon="4.98757">
        <ele>354.241</ele>
        <time>2012-01-20T09:48:19Z</time>
      </trkpt>
      <trkpt lat="47.31022" lon="4.98757">
        <ele>354.363</ele>
        <time>2012-01-20T09:48:30Z</time>
      </trkpt>
      <trkpt lat="47.31022" lon="4.98757">
        <ele>353.887</ele>
        <time>2012-01-20T09:48:41Z</time>
      </trkpt>
      <trkpt lat="47.31022" lon="4.98757">
        <ele>353.887</ele>
        <time>2012-01-20T09:48:52Z</time>
      </trkpt>
      <trkpt lat="47.31022" lon="4.98757">
        <ele>353.887</ele>
        <time>2012-01-20T09:49:03Z</time>
      </trkpt>
      <trkpt lat="47.31022" lon="4.98757">
        <ele>354.145</ele>
        <time>2012-01-20T09:49:14Z</time>
      </trkpt>
      <trkpt lat="47.3102" lon="4.98755">
        <ele>353.721</ele>
        <time>2012-01-20T09:49:25Z</time>
      </trkpt>
      <trkpt lat="47.3102" lon="4.98755">
        <ele>353.721</ele>
        <time>2012-01-20T09:49:36Z</time>
      </trkpt>
      <trkpt lat="47.3102" lon="4.98755">
        <ele>353.653</ele>
        <time>2012-01-20T09:49:47Z</time>
      </trkpt>
      <trkpt lat="47.3102" lon="4.98755">
        <ele>353.909</ele>
        <time>2012-01-20T09:49:58Z</time>
      </trkpt>
      <trkpt lat="47.3102" lon="4.98755">
        <ele>353.909</ele>
        <time>2012-01-20T09:50:09Z</time>
      </trkpt>
      <trkpt lat="47.3102" lon="4.98755">
        <ele>353.909</ele>
        <time>2012-01-20T09:50:20Z</time>
      </trkpt>
      <trkpt lat="47.3102" lon="4.98755">
        <ele>353.357</ele>
        <time>2012-01-20T09:50:31Z</time>
      </trkpt>
      <trkpt lat="47.3102" lon="4.98755">
        <ele>353.224</ele>
        <time>2012-01-20T09:50:42Z</time>
      </trkpt>
      <trkpt lat="47.3102" lon="4.98755">
        <ele>353.211</ele>
        <time>2012-01-20T09:50:53Z</time>
      </trkpt>
      <trkpt lat="47.3102" lon="4.98755">
        <ele>352.9</ele>
        <time>2012-01-20T09:51:04Z</time>
      </trkpt>
      <trkpt lat="47.3102" lon="4.98755">
        <ele>352.9</ele>
        <time>2012-01-20T09:51:15Z</time>
      </trkpt>
      <trkpt lat="47.3102" lon="4.98755">
        <ele>352.988</ele>
        <time>2012-01-20T09:51:26Z</time>
      </trkpt>
      <trkpt lat="47.3102" lon="4.98755">
        <ele>352.988</ele>
        <time>2012-01-20T09:51:37Z</time>
      </trkpt>
      <trkpt lat="47.3102" lon="4.98755">
        <ele>352.988</ele>
        <time>2012-01-20T09:51:48Z</time>
      </trkpt>
      <trkpt lat="47.3102" lon="4.98755">
        <ele>352.988</ele>
        <time>2012-01-20T09:51:59Z</time>
      </trkpt>
      <trkpt lat="47.3102" lon="4.98755">
        <ele>351.85</ele>
        <time>2012-01-20T09:52:10Z</time>
      </trkpt>
      <trkpt lat="47.3102" lon="4.98755">
        <ele>351.85</ele>
        <time>2012-01-20T09:52:21Z</time>
      </trkpt>
      <trkpt lat="47.3102" lon="4.98755">
        <ele>350.924</ele>
        <time>2012-01-20T09:52:32Z</time>
      </trkpt>
      <trkpt lat="47.3102" lon="4.98755">
        <ele>350.924</ele>
        <time>2012-01-20T09:52:43Z</time>
      </trkpt>
      <trkpt lat="47.31015" lon="4.98748">
        <ele>351.93</ele>
        <time>2012-01-20T09:52:54Z</time>
      </trkpt>
      <trkpt lat="47.31008" lon="4.98732">
        <ele>350.957</ele>
        <time>2012-01-20T09:53:05Z</time>
      </trkpt>
      <trkpt lat="47.30998" lon="4.98718">
        <ele>352.263</ele>
        <time>2012-01-20T09:53:16Z</time>
      </trkpt>
      <trkpt lat="47.30988" lon="4.98698">
        <ele>352.694</ele>
        <time>2012-01-20T09:53:27Z</time>
      </trkpt>
      <trkpt lat="47.30982" lon="4.98677">
        <ele>353.216</ele>
        <time>2012-01-20T09:53:38Z</time>
      </trkpt>
      <trkpt lat="47.30973" lon="4.98658">
        <ele>354.451</ele>
        <time>2012-01-20T09:53:49Z</time>
      </trkpt>
      <trkpt lat="47.30965" lon="4.98642">
        <ele>355.574</ele>
        <time>2012-01-20T09:54:00Z</time>
      </trkpt>
      <trkpt lat="47.30952" lon="4.98628">
        <ele>354.903</ele>
        <time>2012-01-20T09:54:11Z</time>
      </trkpt>
      <trkpt lat="47.30937" lon="4.98617">
        <ele>356.654</ele>
        <time>2012-01-20T09:54:22Z</time>
      </trkpt>
      <trkpt lat="47.30923" lon="4.98602">
        <ele>358.445</ele>
        <time>2012-01-20T09:54:33Z</time>
      </trkpt>
      <trkpt lat="47.30912" lon="4.98588">
        <ele>358.102</ele>
        <time>2012-01-20T09:54:44Z</time>
      </trkpt>
      <trkpt lat="47.30895" lon="4.98583">
        <ele>357.699</ele>
        <time>2012-01-20T09:54:55Z</time>
      </trkpt>
      <trkpt lat="47.30878" lon="4.98575">
        <ele>359.225</ele>
        <time>2012-01-20T09:55:06Z</time>
      </trkpt>
      <trkpt lat="47.30867" lon="4.98557">
        <ele>361.464</ele>
        <time>2012-01-20T09:55:17Z</time>
      </trkpt>
      <trkpt lat="47.30855" lon="4.98542">
        <ele>360.786</ele>
        <time>2012-01-20T09:55:28Z</time>
      </trkpt>
      <trkpt lat="47.3084" lon="4.98528">
        <ele>363.046</ele>
        <time>2012-01-20T09:55:39Z</time>
      </trkpt>
      <trkpt lat="47.30822" lon="4.98527">
        <ele>361.972</ele>
        <time>2012-01-20T09:55:50Z</time>
      </trkpt>
      <trkpt lat="47.30807" lon="4.98527">
        <ele>362.531</ele>
        <time>2012-01-20T09:56:01Z</time>
      </trkpt>
      <trkpt lat="47.3079" lon="4.98515">
        <ele>361.387</ele>
        <time>2012-01-20T09:56:12Z</time>
      </trkpt>
      <trkpt lat="47.3078" lon="4.98498">
        <ele>360.455</ele>
        <time>2012-01-20T09:56:23Z</time>
      </trkpt>
      <trkpt lat="47.30765" lon="4.9848">
        <ele>359.838</ele>
        <time>2012-01-20T09:56:34Z</time>
      </trkpt>
      <trkpt lat="47.30753" lon="4.98467">
        <ele>361.543</ele>
        <time>2012-01-20T09:56:45Z</time>
      </trkpt>
      <trkpt lat="47.30737" lon="4.98453">
        <ele>361.799</ele>
        <time>2012-01-20T09:56:56Z</time>
      </trkpt>
      <trkpt lat="47.30723" lon="4.98438">
        <ele>361.631</ele>
        <time>2012-01-20T09:57:07Z</time>
      </trkpt>
      <trkpt lat="47.3071" lon="4.98432">
        <ele>361.474</ele>
        <time>2012-01-20T09:57:18Z</time>
      </trkpt>
      <trkpt lat="47.30697" lon="4.98425">
        <ele>360.713</ele>
        <time>2012-01-20T09:57:29Z</time>
      </trkpt>
      <trkpt lat="47.30685" lon="4.9841">
        <ele>358.624</ele>
        <time>2012-01-20T09:57:40Z</time>
      </trkpt>
      <trkpt lat="47.30678" lon="4.98382">
        <ele>357.454</ele>
        <time>2012-01-20T09:57:51Z</time>
      </trkpt>
      <trkpt lat="47.30672" lon="4.9836">
        <ele>355.085</ele>
        <time>2012-01-20T09:58:02Z</time>
      </trkpt>
      <trkpt lat="47.30663" lon="4.9834">
        <ele>354.582</ele>
        <time>2012-01-20T09:58:13Z</time>
      </trkpt>
      <trkpt lat="47.30655" lon="4.98323">
        <ele>353.617</ele>
        <time>2012-01-20T09:58:24Z</time>
      </trkpt>
      <trkpt lat="47.30647" lon="4.98303">
        <ele>353.96</ele>
        <time>2012-01-20T09:58:35Z</time>
      </trkpt>
      <trkpt lat="47.30638" lon="4.98288">
        <ele>355.528</ele>
        <time>2012-01-20T09:58:46Z</time>
      </trkpt>
      <trkpt lat="47.30627" lon="4.9827">
        <ele>356.284</ele>
        <time>2012-01-20T09:58:57Z</time>
      </trkpt>
      <trkpt lat="47.30623" lon="4.98265">
        <ele>356.739</ele>
        <time>2012-01-20T09:59:08Z</time>
      </trkpt>
      <trkpt lat="47.30612" lon="4.98268">
        <ele>355.939</ele>
        <time>2012-01-20T09:59:19Z</time>
      </trkpt>
      <trkpt lat="47.30598" lon="4.98272">
        <ele>355.895</ele>
        <time>2012-01-20T09:59:30Z</time>
      </trkpt>
      <trkpt lat="47.30587" lon="4.98275">
        <ele>356.188</ele>
        <time>2012-01-20T09:59:41Z</time>
      </trkpt>
      <trkpt lat="47.30573" lon="4.98275">
        <ele>356.649</ele>
        <time>2012-01-20T09:59:52Z</time>
      </trkpt>
      <trkpt lat="47.30562" lon="4.98267">
        <ele>356.782</ele>
        <time>2012-01-20T10:00:03Z</time>
      </trkpt>
      <trkpt lat="47.30548" lon="4.98252">
        <ele>357.119</ele>
        <time>2012-01-20T10:00:14Z</time>
      </trkpt>
      <trkpt lat="47.30537" lon="4.98233">
        <ele>356.923</ele>
        <time>2012-01-20T10:00:25Z</time>
      </trkpt>
      <trkpt lat="47.30522" lon="4.98218">
        <ele>356.16</ele>
        <time>2012-01-20T10:00:36Z</time>
      </trkpt>
      <trkpt lat="47.30512" lon="4.98203">
        <ele>358.359</ele>
        <time>2012-01-20T10:00:47Z</time>
      </trkpt>
      <trkpt lat="47.30502" lon="4.98188">
        <ele>359.749</ele>
        <time>2012-01-20T10:00:58Z</time>
      </trkpt>
      <trkpt lat="47.30488" lon="4.98172">
        <ele>360.147</ele>
        <time>2012-01-20T10:01:09Z</time>
      </trkpt>
      <trkpt lat="47.30473" lon="4.98152">
        <ele>361.61</ele>
        <time>2012-01-20T10:01:20Z</time>
      </trkpt>
      <trkpt lat="47.30462" lon="4.98138">
        <ele>361.776</ele>
        <time>2012-01-20T10:01:31Z</time>
      </trkpt>
      <trkpt lat="47.30448" lon="4.98125">
        <ele>360.014</ele>
        <time>2012-01-20T10:01:42Z</time>
      </trkpt>
      <trkpt lat="47.30432" lon="4.98123">
        <ele>360.133</ele>
        <time>2012-01-20T10:01:53Z</time>
      </trkpt>
      <trkpt lat="47.30415" lon="4.98123">
        <ele>358.673</ele>
        <time>2012-01-20T10:02:04Z</time>
      </trkpt>
      <trkpt lat="47.304" lon="4.98123">
        <ele>359.986</ele>
        <time>2012-01-20T10:02:15Z</time>
      </trkpt>
      <trkpt lat="47.30383" lon="4.98125">
        <ele>362.981</ele>
        <time>2012-01-20T10:02:26Z</time>
      </trkpt>
      <trkpt lat="47.30368" lon="4.98128">
        <ele>362.1</ele>
        <time>2012-01-20T10:02:37Z</time>
      </trkpt>
      <trkpt lat="47.30357" lon="4.98127">
        <ele>362.711</ele>
        <time>2012-01-20T10:02:48Z</time>
      </trkpt>
      <trkpt lat="47.30343" lon="4.98125">
        <ele>362.317</ele>
        <time>2012-01-20T10:02:59Z</time>
      </trkpt>
      <trkpt lat="47.30327" lon="4.9812">
        <ele>363.761</ele>
        <time>2012-01-20T10:03:10Z</time>
      </trkpt>
      <trkpt lat="47.30315" lon="4.9811">
        <ele>364.92</ele>
        <time>2012-01-20T10:03:21Z</time>
      </trkpt>
      <trkpt lat="47.30308" lon="4.98093">
        <ele>364.178</ele>
        <time>2012-01-20T10:03:32Z</time>
      </trkpt>
      <trkpt lat="47.30303" lon="4.98073">
        <ele>366.847</ele>
        <time>2012-01-20T10:03:43Z</time>
      </trkpt>
      <trkpt lat="47.30298" lon="4.98058">
        <ele>366.456</ele>
        <time>2012-01-20T10:03:54Z</time>
      </trkpt>
      <trkpt lat="47.3029" lon="4.98042">
        <ele>368.153</ele>
        <time>2012-01-20T10:04:05Z</time>
      </trkpt>
      <trkpt lat="47.30282" lon="4.98025">
        <ele>367.079</ele>
        <time>2012-01-20T10:04:16Z</time>
      </trkpt>
      <trkpt lat="47.30273" lon="4.98005">
        <ele>366.876</ele>
        <time>2012-01-20T10:04:27Z</time>
      </trkpt>
      <trkpt lat="47.30267" lon="4.9799">
        <ele>367.437</ele>
        <time>2012-01-20T10:04:38Z</time>
      </trkpt>
      <trkpt lat="47.3026" lon="4.97977">
        <ele>367.96</ele>
        <time>2012-01-20T10:04:49Z</time>
      </trkpt>
      <trkpt lat="47.30253" lon="4.97962">
        <ele>368.741</ele>
        <time>2012-01-20T10:05:00Z</time>
      </trkpt>
      <trkpt lat="47.30245" lon="4.97945">
        <ele>369.201</ele>
        <time>2012-01-20T10:05:11Z</time>
      </trkpt>
      <trkpt lat="47.30237" lon="4.97928">
        <ele>371.36</ele>
        <time>2012-01-20T10:05:22Z</time>
      </trkpt>
      <trkpt lat="47.30225" lon="4.97907">
        <ele>372.235</ele>
        <time>2012-01-20T10:05:33Z</time>
      </trkpt>
      <trkpt lat="47.3022" lon="4.97892">
        <ele>372.744</ele>
        <time>2012-01-20T10:05:44Z</time>
      </trkpt>
      <trkpt lat="47.30212" lon="4.97873">
        <ele>373.729</ele>
        <time>2012-01-20T10:05:55Z</time>
      </trkpt>
      <trkpt lat="47.30203" lon="4.97855">
        <ele>372.277</ele>
        <time>2012-01-20T10:06:06Z</time>
      </trkpt>
      <trkpt lat="47.30195" lon="4.97838">
        <ele>371.874</ele>
        <time>2012-01-20T10:06:17Z</time>
      </trkpt>
      <trkpt lat="47.30187" lon="4.9782">
        <ele>371.283</ele>
        <time>2012-01-20T10:06:28Z</time>
      </trkpt>
      <trkpt lat="47.30178" lon="4.97803">
        <ele>374.049</ele>
        <time>2012-01-20T10:06:39Z</time>
      </trkpt>
      <trkpt lat="47.3017" lon="4.97787">
        <ele>374.327</ele>
        <time>2012-01-20T10:06:50Z</time>
      </trkpt>
      <trkpt lat="47.30162" lon="4.97768">
        <ele>374.884</ele>
        <time>2012-01-20T10:07:01Z</time>
      </trkpt>
      <trkpt lat="47.30153" lon="4.97753">
        <ele>374.423</ele>
        <time>2012-01-20T10:07:12Z</time>
      </trkpt>
      <trkpt lat="47.30145" lon="4.97735">
        <ele>375.272</ele>
        <time>2012-01-20T10:07:23Z</time>
      </trkpt>
      <trkpt lat="47.30137" lon="4.9772">
        <ele>375.811</ele>
        <time>2012-01-20T10:07:34Z</time>
      </trkpt>
      <trkpt lat="47.30128" lon="4.97702">
        <ele>376.844</ele>
        <time>2012-01-20T10:07:45Z</time>
      </trkpt>
      <trkpt lat="47.30118" lon="4.97682">
        <ele>376.772</ele>
        <time>2012-01-20T10:07:56Z</time>
      </trkpt>
      <trkpt lat="47.3011" lon="4.97663">
        <ele>376.455</ele>
        <time>2012-01-20T10:08:07Z</time>
      </trkpt>
      <trkpt lat="47.30102" lon="4.97648">
        <ele>376.93</ele>
        <time>2012-01-20T10:08:18Z</time>
      </trkpt>
      <trkpt lat="47.30092" lon="4.9763">
        <ele>376.256</ele>
        <time>2012-01-20T10:08:29Z</time>
      </trkpt>
      <trkpt lat="47.30085" lon="4.97613">
        <ele>375.329</ele>
        <time>2012-01-20T10:08:40Z</time>
      </trkpt>
      <trkpt lat="47.30077" lon="4.97595">
        <ele>377.232</ele>
        <time>2012-01-20T10:08:51Z</time>
      </trkpt>
      <trkpt lat="47.3007" lon="4.97577">
        <ele>377.856</ele>
        <time>2012-01-20T10:09:02Z</time>
      </trkpt>
      <trkpt lat="47.30062" lon="4.97562">
        <ele>377.473</ele>
        <time>2012-01-20T10:09:13Z</time>
      </trkpt>
      <trkpt lat="47.30053" lon="4.97545">
        <ele>378.565</ele>
        <time>2012-01-20T10:09:24Z</time>
      </trkpt>
      <trkpt lat="47.30043" lon="4.97527">
        <ele>379.431</ele>
        <time>2012-01-20T10:09:35Z</time>
      </trkpt>
      <trkpt lat="47.30037" lon="4.97513">
        <ele>378.096</ele>
        <time>2012-01-20T10:09:46Z</time>
      </trkpt>
      <trkpt lat="47.30027" lon="4.97497">
        <ele>379.058</ele>
        <time>2012-01-20T10:09:57Z</time>
      </trkpt>
      <trkpt lat="47.30017" lon="4.97477">
        <ele>379.455</ele>
        <time>2012-01-20T10:10:08Z</time>
      </trkpt>
      <trkpt lat="47.30007" lon="4.9746">
        <ele>379.993</ele>
        <time>2012-01-20T10:10:19Z</time>
      </trkpt>
      <trkpt lat="47.29998" lon="4.97443">
        <ele>380.114</ele>
        <time>2012-01-20T10:10:30Z</time>
      </trkpt>
      <trkpt lat="47.2999" lon="4.97425">
        <ele>382.312</ele>
        <time>2012-01-20T10:10:41Z</time>
      </trkpt>
      <trkpt lat="47.29983" lon="4.97408">
        <ele>382.892</ele>
        <time>2012-01-20T10:10:52Z</time>
      </trkpt>
      <trkpt lat="47.29977" lon="4.97392">
        <ele>382.598</ele>
        <time>2012-01-20T10:11:03Z</time>
      </trkpt>
      <trkpt lat="47.29967" lon="4.97373">
        <ele>381.465</ele>
        <time>2012-01-20T10:11:14Z</time>
      </trkpt>
      <trkpt lat="47.29955" lon="4.97353">
        <ele>382.125</ele>
        <time>2012-01-20T10:11:25Z</time>
      </trkpt>
      <trkpt lat="47.29948" lon="4.97337">
        <ele>380.934</ele>
        <time>2012-01-20T10:11:36Z</time>
      </trkpt>
      <trkpt lat="47.29943" lon="4.97317">
        <ele>381.06</ele>
        <time>2012-01-20T10:11:47Z</time>
      </trkpt>
      <trkpt lat="47.29937" lon="4.97298">
        <ele>381.426</ele>
        <time>2012-01-20T10:11:58Z</time>
      </trkpt>
      <trkpt lat="47.2993" lon="4.97278">
        <ele>381.397</ele>
        <time>2012-01-20T10:12:09Z</time>
      </trkpt>
      <trkpt lat="47.29923" lon="4.9726">
        <ele>379.196</ele>
        <time>2012-01-20T10:12:20Z</time>
      </trkpt>
      <trkpt lat="47.29917" lon="4.97243">
        <ele>378.422</ele>
        <time>2012-01-20T10:12:31Z</time>
      </trkpt>
      <trkpt lat="47.29907" lon="4.9723">
        <ele>378.872</ele>
        <time>2012-01-20T10:12:42Z</time>
      </trkpt>
      <trkpt lat="47.29895" lon="4.97215">
        <ele>379.455</ele>
        <time>2012-01-20T10:12:53Z</time>
      </trkpt>
      <trkpt lat="47.29882" lon="4.97202">
        <ele>379.609</ele>
        <time>2012-01-20T10:13:04Z</time>
      </trkpt>
      <trkpt lat="47.2987" lon="4.9719">
        <ele>381.246</ele>
        <time>2012-01-20T10:13:15Z</time>
      </trkpt>
      <trkpt lat="47.29858" lon="4.97178">
        <ele>381.684</ele>
        <time>2012-01-20T10:13:26Z</time>
      </trkpt>
      <trkpt lat="47.29852" lon="4.97168">
        <ele>383.135</ele>
        <time>2012-01-20T10:13:37Z</time>
      </trkpt>
      <trkpt lat="47.29847" lon="4.97175">
        <ele>383.643</ele>
        <time>2012-01-20T10:13:48Z</time>
      </trkpt>
      <trkpt lat="47.29835" lon="4.97182">
        <ele>384.675</ele>
        <time>2012-01-20T10:13:59Z</time>
      </trkpt>
      <trkpt lat="47.29823" lon="4.97187">
        <ele>384.988</ele>
        <time>2012-01-20T10:14:10Z</time>
      </trkpt>
      <trkpt lat="47.29812" lon="4.97175">
        <ele>383.807</ele>
        <time>2012-01-20T10:14:21Z</time>
      </trkpt>
      <trkpt lat="47.298" lon="4.97165">
        <ele>382.719</ele>
        <time>2012-01-20T10:14:32Z</time>
      </trkpt>
      <trkpt lat="47.29787" lon="4.97153">
        <ele>381.89</ele>
        <time>2012-01-20T10:14:43Z</time>
      </trkpt>
      <trkpt lat="47.29778" lon="4.97138">
        <ele>382.298</ele>
        <time>2012-01-20T10:14:54Z</time>
      </trkpt>
      <trkpt lat="47.29767" lon="4.97123">
        <ele>382.1</ele>
        <time>2012-01-20T10:15:05Z</time>
      </trkpt>
      <trkpt lat="47.29753" lon="4.9712">
        <ele>381.939</ele>
        <time>2012-01-20T10:15:16Z</time>
      </trkpt>
      <trkpt lat="47.29743" lon="4.97113">
        <ele>380.715</ele>
        <time>2012-01-20T10:15:27Z</time>
      </trkpt>
      <trkpt lat="47.29743" lon="4.97107">
        <ele>378.641</ele>
        <time>2012-01-20T10:15:38Z</time>
      </trkpt>
      <trkpt lat="47.2974" lon="4.97102">
        <ele>378.671</ele>
        <time>2012-01-20T10:15:49Z</time>
      </trkpt>
      <trkpt lat="47.2974" lon="4.97095">
        <ele>378.281</ele>
        <time>2012-01-20T10:16:00Z</time>
      </trkpt>
      <trkpt lat="47.29748" lon="4.97087">
        <ele>378.656</ele>
        <time>2012-01-20T10:16:11Z</time>
      </trkpt>
      <trkpt lat="47.29757" lon="4.97077">
        <ele>379.022</ele>
        <time>2012-01-20T10:16:22Z</time>
      </trkpt>
      <trkpt lat="47.29755" lon="4.97065">
        <ele>378.369</ele>
        <time>2012-01-20T10:16:33Z</time>
      </trkpt>
      <trkpt lat="47.29747" lon="4.9706">
        <ele>379.816</ele>
        <time>2012-01-20T10:16:44Z</time>
      </trkpt>
      <trkpt lat="47.29742" lon="4.97058">
        <ele>380.684</ele>
        <time>2012-01-20T10:16:55Z</time>
      </trkpt>
      <trkpt lat="47.29738" lon="4.97058">
        <ele>381.979</ele>
        <time>2012-01-20T10:17:06Z</time>
      </trkpt>
      <trkpt lat="47.2973" lon="4.97057">
        <ele>383.684</ele>
        <time>2012-01-20T10:17:17Z</time>
      </trkpt>
      <trkpt lat="47.29723" lon="4.97053">
        <ele>384.75</ele>
        <time>2012-01-20T10:17:28Z</time>
      </trkpt>
      <trkpt lat="47.29715" lon="4.97052">
        <ele>385.399</ele>
        <time>2012-01-20T10:17:39Z</time>
      </trkpt>
      <trkpt lat="47.29702" lon="4.97047">
        <ele>382.291</ele>
        <time>2012-01-20T10:17:50Z</time>
      </trkpt>
      <trkpt lat="47.29685" lon="4.97042">
        <ele>379.736</ele>
        <time>2012-01-20T10:18:01Z</time>
      </trkpt>
      <trkpt lat="47.29668" lon="4.97027">
        <ele>374.415</ele>
        <time>2012-01-20T10:18:12Z</time>
      </trkpt>
      <trkpt lat="47.29662" lon="4.97023">
        <ele>370.879</ele>
        <time>2012-01-20T10:18:23Z</time>
      </trkpt>
      <trkpt lat="47.29653" lon="4.97015">
        <ele>371.359</ele>
        <time>2012-01-20T10:18:34Z</time>
      </trkpt>
      <trkpt lat="47.29645" lon="4.97007">
        <ele>372.167</ele>
        <time>2012-01-20T10:18:45Z</time>
      </trkpt>
      <trkpt lat="47.29632" lon="4.96988">
        <ele>376.23</ele>
        <time>2012-01-20T10:18:56Z</time>
      </trkpt>
      <trkpt lat="47.29623" lon="4.96983">
        <ele>373.361</ele>
        <time>2012-01-20T10:19:07Z</time>
      </trkpt>
      <trkpt lat="47.29623" lon="4.9698">
        <ele>372.632</ele>
        <time>2012-01-20T10:19:18Z</time>
      </trkpt>
      <trkpt lat="47.29623" lon="4.9698">
        <ele>372.632</ele>
        <time>2012-01-20T10:19:29Z</time>
      </trkpt>
      <trkpt lat="47.29622" lon="4.96977">
        <ele>371.808</ele>
        <time>2012-01-20T10:19:40Z</time>
      </trkpt>
      <trkpt lat="47.29622" lon="4.96973">
        <ele>372.311</ele>
        <time>2012-01-20T10:19:51Z</time>
      </trkpt>
      <trkpt lat="47.2962" lon="4.96972">
        <ele>371.689</ele>
        <time>2012-01-20T10:20:02Z</time>
      </trkpt>
      <trkpt lat="47.2962" lon="4.96972">
        <ele>371.689</ele>
        <time>2012-01-20T10:20:13Z</time>
      </trkpt>
      <trkpt lat="47.2962" lon="4.96972">
        <ele>371.689</ele>
        <time>2012-01-20T10:20:24Z</time>
      </trkpt>
      <trkpt lat="47.2962" lon="4.96972">
        <ele>371.689</ele>
        <time>2012-01-20T10:20:35Z</time>
      </trkpt>
      <trkpt lat="47.29618" lon="4.96967">
        <ele>369.472</ele>
        <time>2012-01-20T10:20:46Z</time>
      </trkpt>
      <trkpt lat="47.29617" lon="4.96965">
        <ele>369.255</ele>
        <time>2012-01-20T10:20:57Z</time>
      </trkpt>
      <trkpt lat="47.29617" lon="4.96965">
        <ele>369.255</ele>
        <time>2012-01-20T10:21:08Z</time>
      </trkpt>
      <trkpt lat="47.29617" lon="4.96965">
        <ele>368.734</ele>
        <time>2012-01-20T10:21:19Z</time>
      </trkpt>
      <trkpt lat="47.29617" lon="4.96965">
        <ele>368.734</ele>
        <time>2012-01-20T10:21:30Z</time>
      </trkpt>
      <trkpt lat="47.29615" lon="4.96962">
        <ele>368.328</ele>
        <time>2012-01-20T10:21:41Z</time>
      </trkpt>
      <trkpt lat="47.29613" lon="4.96957">
        <ele>368.348</ele>
        <time>2012-01-20T10:21:52Z</time>
      </trkpt>
      <trkpt lat="47.2961" lon="4.96948">
        <ele>367.979</ele>
        <time>2012-01-20T10:22:03Z</time>
      </trkpt>
      <trkpt lat="47.29605" lon="4.96943">
        <ele>370.85</ele>
        <time>2012-01-20T10:22:14Z</time>
      </trkpt>
      <trkpt lat="47.29598" lon="4.96935">
        <ele>370.659</ele>
        <time>2012-01-20T10:22:25Z</time>
      </trkpt>
      <trkpt lat="47.29593" lon="4.96923">
        <ele>372.386</ele>
        <time>2012-01-20T10:22:36Z</time>
      </trkpt>
      <trkpt lat="47.2959" lon="4.96913">
        <ele>374.753</ele>
        <time>2012-01-20T10:22:47Z</time>
      </trkpt>
      <trkpt lat="47.29585" lon="4.96905">
        <ele>374.092</ele>
        <time>2012-01-20T10:22:58Z</time>
      </trkpt>
      <trkpt lat="47.29573" lon="4.96893">
        <ele>373.815</ele>
        <time>2012-01-20T10:23:09Z</time>
      </trkpt>
      <trkpt lat="47.29562" lon="4.96887">
        <ele>377.528</ele>
        <time>2012-01-20T10:23:20Z</time>
      </trkpt>
      <trkpt lat="47.29557" lon="4.96882">
        <ele>377.007</ele>
        <time>2012-01-20T10:23:31Z</time>
      </trkpt>
      <trkpt lat="47.29548" lon="4.96872">
        <ele>377.455</ele>
        <time>2012-01-20T10:23:42Z</time>
      </trkpt>
      <trkpt lat="47.29543" lon="4.96867">
        <ele>379.097</ele>
        <time>2012-01-20T10:23:53Z</time>
      </trkpt>
      <trkpt lat="47.2954" lon="4.96857">
        <ele>378.969</ele>
        <time>2012-01-20T10:24:04Z</time>
      </trkpt>
      <trkpt lat="47.29533" lon="4.96845">
        <ele>375.962</ele>
        <time>2012-01-20T10:24:15Z</time>
      </trkpt>
      <trkpt lat="47.2953" lon="4.96842">
        <ele>378.1</ele>
        <time>2012-01-20T10:24:26Z</time>
      </trkpt>
      <trkpt lat="47.29527" lon="4.96837">
        <ele>378.56</ele>
        <time>2012-01-20T10:24:37Z</time>
      </trkpt>
      <trkpt lat="47.29518" lon="4.96828">
        <ele>375.916</ele>
        <time>2012-01-20T10:24:48Z</time>
      </trkpt>
      <trkpt lat="47.29517" lon="4.96828">
        <ele>375.984</ele>
        <time>2012-01-20T10:24:59Z</time>
      </trkpt>
      <trkpt lat="47.29517" lon="4.96828">
        <ele>375.931</ele>
        <time>2012-01-20T10:25:10Z</time>
      </trkpt>
      <trkpt lat="47.29515" lon="4.96827">
        <ele>375.201</ele>
        <time>2012-01-20T10:25:21Z</time>
      </trkpt>
      <trkpt lat="47.29515" lon="4.96827">
        <ele>375.201</ele>
        <time>2012-01-20T10:25:32Z</time>
      </trkpt>
      <trkpt lat="47.29513" lon="4.96827">
        <ele>374.163</ele>
        <time>2012-01-20T10:25:43Z</time>
      </trkpt>
      <trkpt lat="47.29513" lon="4.96827">
        <ele>374.163</ele>
        <time>2012-01-20T10:25:54Z</time>
      </trkpt>
      <trkpt lat="47.29513" lon="4.96827">
        <ele>373.311</ele>
        <time>2012-01-20T10:26:05Z</time>
      </trkpt>
      <trkpt lat="47.2951" lon="4.96827">
        <ele>374.079</ele>
        <time>2012-01-20T10:26:16Z</time>
      </trkpt>
      <trkpt lat="47.29503" lon="4.96827">
        <ele>379.167</ele>
        <time>2012-01-20T10:26:27Z</time>
      </trkpt>
      <trkpt lat="47.29495" lon="4.96822">
        <ele>380.52</ele>
        <time>2012-01-20T10:26:38Z</time>
      </trkpt>
      <trkpt lat="47.29483" lon="4.96818">
        <ele>382.86</ele>
        <time>2012-01-20T10:26:49Z</time>
      </trkpt>
      <trkpt lat="47.29472" lon="4.9681">
        <ele>385.123</ele>
        <time>2012-01-20T10:27:00Z</time>
      </trkpt>
      <trkpt lat="47.29458" lon="4.96808">
        <ele>384.964</ele>
        <time>2012-01-20T10:27:11Z</time>
      </trkpt>
      <trkpt lat="47.29443" lon="4.96805">
        <ele>385.241</ele>
        <time>2012-01-20T10:27:22Z</time>
      </trkpt>
      <trkpt lat="47.29432" lon="4.96797">
        <ele>388.217</ele>
        <time>2012-01-20T10:27:33Z</time>
      </trkpt>
      <trkpt lat="47.29423" lon="4.968">
        <ele>388.989</ele>
        <time>2012-01-20T10:27:44Z</time>
      </trkpt>
      <trkpt lat="47.29412" lon="4.96815">
        <ele>387.478</ele>
        <time>2012-01-20T10:27:55Z</time>
      </trkpt>
      <trkpt lat="47.29407" lon="4.96827">
        <ele>388.484</ele>
        <time>2012-01-20T10:28:06Z</time>
      </trkpt>
      <trkpt lat="47.29402" lon="4.96842">
        <ele>387.798</ele>
        <time>2012-01-20T10:28:17Z</time>
      </trkpt>
      <trkpt lat="47.29388" lon="4.96852">
        <ele>388.876</ele>
        <time>2012-01-20T10:28:28Z</time>
      </trkpt>
      <trkpt lat="47.29375" lon="4.9686">
        <ele>393.054</ele>
        <time>2012-01-20T10:28:39Z</time>
      </trkpt>
      <trkpt lat="47.29368" lon="4.96867">
        <ele>394.571</ele>
        <time>2012-01-20T10:28:50Z</time>
      </trkpt>
      <trkpt lat="47.29357" lon="4.96867">
        <ele>393.722</ele>
        <time>2012-01-20T10:29:01Z</time>
      </trkpt>
      <trkpt lat="47.29338" lon="4.96868">
        <ele>394.059</ele>
        <time>2012-01-20T10:29:12Z</time>
      </trkpt>
      <trkpt lat="47.29325" lon="4.96862">
        <ele>395.081</ele>
        <time>2012-01-20T10:29:23Z</time>
      </trkpt>
      <trkpt lat="47.29308" lon="4.96855">
        <ele>395.257</ele>
        <time>2012-01-20T10:29:34Z</time>
      </trkpt>
      <trkpt lat="47.29295" lon="4.96843">
        <ele>394.507</ele>
        <time>2012-01-20T10:29:45Z</time>
      </trkpt>
      <trkpt lat="47.29288" lon="4.96828">
        <ele>394.157</ele>
        <time>2012-01-20T10:29:56Z</time>
      </trkpt>
      <trkpt lat="47.29278" lon="4.96815">
        <ele>394.725</ele>
        <time>2012-01-20T10:30:07Z</time>
      </trkpt>
      <trkpt lat="47.29275" lon="4.96798">
        <ele>395.845</ele>
        <time>2012-01-20T10:30:18Z</time>
      </trkpt>
      <trkpt lat="47.29263" lon="4.96787">
        <ele>395.654</ele>
        <time>2012-01-20T10:30:29Z</time>
      </trkpt>
      <trkpt lat="47.29255" lon="4.96775">
        <ele>395.699</ele>
        <time>2012-01-20T10:30:40Z</time>
      </trkpt>
      <trkpt lat="47.29247" lon="4.96758">
        <ele>396.336</ele>
        <time>2012-01-20T10:30:51Z</time>
      </trkpt>
      <trkpt lat="47.29238" lon="4.9674">
        <ele>397.533</ele>
        <time>2012-01-20T10:31:02Z</time>
      </trkpt>
      <trkpt lat="47.29235" lon="4.96733">
        <ele>398.946</ele>
        <time>2012-01-20T10:31:13Z</time>
      </trkpt>
      <trkpt lat="47.29223" lon="4.9673">
        <ele>398.234</ele>
        <time>2012-01-20T10:31:24Z</time>
      </trkpt>
      <trkpt lat="47.29217" lon="4.96725">
        <ele>400.648</ele>
        <time>2012-01-20T10:31:35Z</time>
      </trkpt>
      <trkpt lat="47.29212" lon="4.96718">
        <ele>401.867</ele>
        <time>2012-01-20T10:31:46Z</time>
      </trkpt>
      <trkpt lat="47.29208" lon="4.96717">
        <ele>401.289</ele>
        <time>2012-01-20T10:31:57Z</time>
      </trkpt>
      <trkpt lat="47.29205" lon="4.9672">
        <ele>399.889</ele>
        <time>2012-01-20T10:32:08Z</time>
      </trkpt>
      <trkpt lat="47.29203" lon="4.9672">
        <ele>400.519</ele>
        <time>2012-01-20T10:32:19Z</time>
      </trkpt>
      <trkpt lat="47.29203" lon="4.96727">
        <ele>400.825</ele>
        <time>2012-01-20T10:32:30Z</time>
      </trkpt>
      <trkpt lat="47.29203" lon="4.9673">
        <ele>398.415</ele>
        <time>2012-01-20T10:32:41Z</time>
      </trkpt>
      <trkpt lat="47.29203" lon="4.9673">
        <ele>397.985</ele>
        <time>2012-01-20T10:32:52Z</time>
      </trkpt>
      <trkpt lat="47.29203" lon="4.96733">
        <ele>398.108</ele>
        <time>2012-01-20T10:33:03Z</time>
      </trkpt>
      <trkpt lat="47.29205" lon="4.96733">
        <ele>398.223</ele>
        <time>2012-01-20T10:33:14Z</time>
      </trkpt>
      <trkpt lat="47.29207" lon="4.96735">
        <ele>397.33</ele>
        <time>2012-01-20T10:33:25Z</time>
      </trkpt>
      <trkpt lat="47.29205" lon="4.96742">
        <ele>397.303</ele>
        <time>2012-01-20T10:33:36Z</time>
      </trkpt>
      <trkpt lat="47.29208" lon="4.9675">
        <ele>393.127</ele>
        <time>2012-01-20T10:33:47Z</time>
      </trkpt>
      <trkpt lat="47.29208" lon="4.9675">
        <ele>393.127</ele>
        <time>2012-01-20T10:33:58Z</time>
      </trkpt>
      <trkpt lat="47.29208" lon="4.96755">
        <ele>393.576</ele>
        <time>2012-01-20T10:34:09Z</time>
      </trkpt>
      <trkpt lat="47.29208" lon="4.9676">
        <ele>392.839</ele>
        <time>2012-01-20T10:34:20Z</time>
      </trkpt>
      <trkpt lat="47.29217" lon="4.96772">
        <ele>390.505</ele>
        <time>2012-01-20T10:34:31Z</time>
      </trkpt>
      <trkpt lat="47.29218" lon="4.96788">
        <ele>392.122</ele>
        <time>2012-01-20T10:34:42Z</time>
      </trkpt>
      <trkpt lat="47.29222" lon="4.96795">
        <ele>390.638</ele>
        <time>2012-01-20T10:34:53Z</time>
      </trkpt>
      <trkpt lat="47.29222" lon="4.96802">
        <ele>387.177</ele>
        <time>2012-01-20T10:35:04Z</time>
      </trkpt>
      <trkpt lat="47.2923" lon="4.96818">
        <ele>387.733</ele>
        <time>2012-01-20T10:35:15Z</time>
      </trkpt>
      <trkpt lat="47.2924" lon="4.96835">
        <ele>384.272</ele>
        <time>2012-01-20T10:35:26Z</time>
      </trkpt>
      <trkpt lat="47.29243" lon="4.96843">
        <ele>383.238</ele>
        <time>2012-01-20T10:35:37Z</time>
      </trkpt>
      <trkpt lat="47.29247" lon="4.9686">
        <ele>385.133</ele>
        <time>2012-01-20T10:35:48Z</time>
      </trkpt>
      <trkpt lat="47.29248" lon="4.9687">
        <ele>383.921</ele>
        <time>2012-01-20T10:35:59Z</time>
      </trkpt>
      <trkpt lat="47.29252" lon="4.96887">
        <ele>381.938</ele>
        <time>2012-01-20T10:36:10Z</time>
      </trkpt>
      <trkpt lat="47.29255" lon="4.96902">
        <ele>377.946</ele>
        <time>2012-01-20T10:36:21Z</time>
      </trkpt>
      <trkpt lat="47.29257" lon="4.9691">
        <ele>377.282</ele>
        <time>2012-01-20T10:36:32Z</time>
      </trkpt>
      <trkpt lat="47.29263" lon="4.96928">
        <ele>375.018</ele>
        <time>2012-01-20T10:36:43Z</time>
      </trkpt>
      <trkpt lat="47.2927" lon="4.96938">
        <ele>369.909</ele>
        <time>2012-01-20T10:36:54Z</time>
      </trkpt>
      <trkpt lat="47.2928" lon="4.96967">
        <ele>365.924</ele>
        <time>2012-01-20T10:37:05Z</time>
      </trkpt>
      <trkpt lat="47.29285" lon="4.96988">
        <ele>363.771</ele>
        <time>2012-01-20T10:37:16Z</time>
      </trkpt>
      <trkpt lat="47.29292" lon="4.97007">
        <ele>360.513</ele>
        <time>2012-01-20T10:37:27Z</time>
      </trkpt>
      <trkpt lat="47.29303" lon="4.97033">
        <ele>356.82</ele>
        <time>2012-01-20T10:37:38Z</time>
      </trkpt>
      <trkpt lat="47.2931" lon="4.97042">
        <ele>354.116</ele>
        <time>2012-01-20T10:37:49Z</time>
      </trkpt>
      <trkpt lat="47.29313" lon="4.97053">
        <ele>353.666</ele>
        <time>2012-01-20T10:38:00Z</time>
      </trkpt>
      <trkpt lat="47.29317" lon="4.97058">
        <ele>352.177</ele>
        <time>2012-01-20T10:38:11Z</time>
      </trkpt>
      <trkpt lat="47.29317" lon="4.97068">
        <ele>353.155</ele>
        <time>2012-01-20T10:38:22Z</time>
      </trkpt>
      <trkpt lat="47.2931" lon="4.97087">
        <ele>347.999</ele>
        <time>2012-01-20T10:38:33Z</time>
      </trkpt>
      <trkpt lat="47.2931" lon="4.971">
        <ele>346.532</ele>
        <time>2012-01-20T10:38:44Z</time>
      </trkpt>
      <trkpt lat="47.29307" lon="4.97108">
        <ele>347.207</ele>
        <time>2012-01-20T10:38:55Z</time>
      </trkpt>
      <trkpt lat="47.293" lon="4.97115">
        <ele>350.889</ele>
        <time>2012-01-20T10:39:06Z</time>
      </trkpt>
      <trkpt lat="47.2929" lon="4.9714">
        <ele>347.348</ele>
        <time>2012-01-20T10:39:17Z</time>
      </trkpt>
      <trkpt lat="47.29282" lon="4.97158">
        <ele>347.229</ele>
        <time>2012-01-20T10:39:28Z</time>
      </trkpt>
      <trkpt lat="47.29278" lon="4.97165">
        <ele>345.952</ele>
        <time>2012-01-20T10:39:39Z</time>
      </trkpt>
      <trkpt lat="47.2927" lon="4.97177">
        <ele>347.659</ele>
        <time>2012-01-20T10:39:50Z</time>
      </trkpt>
      <trkpt lat="47.29262" lon="4.97188">
        <ele>348.681</ele>
        <time>2012-01-20T10:40:01Z</time>
      </trkpt>
      <trkpt lat="47.29255" lon="4.972">
        <ele>347.369</ele>
        <time>2012-01-20T10:40:12Z</time>
      </trkpt>
      <trkpt lat="47.29242" lon="4.97213">
        <ele>346.295</ele>
        <time>2012-01-20T10:40:23Z</time>
      </trkpt>
      <trkpt lat="47.29228" lon="4.97227">
        <ele>348.309</ele>
        <time>2012-01-20T10:40:34Z</time>
      </trkpt>
      <trkpt lat="47.29215" lon="4.97245">
        <ele>348.639</ele>
        <time>2012-01-20T10:40:45Z</time>
      </trkpt>
      <trkpt lat="47.29205" lon="4.97263">
        <ele>349.894</ele>
        <time>2012-01-20T10:40:56Z</time>
      </trkpt>
      <trkpt lat="47.29192" lon="4.9728">
        <ele>350.651</ele>
        <time>2012-01-20T10:41:07Z</time>
      </trkpt>
      <trkpt lat="47.29182" lon="4.97288">
        <ele>350.932</ele>
        <time>2012-01-20T10:41:18Z</time>
      </trkpt>
      <trkpt lat="47.29173" lon="4.97307">
        <ele>350.795</ele>
        <time>2012-01-20T10:41:29Z</time>
      </trkpt>
      <trkpt lat="47.29163" lon="4.97315">
        <ele>351.489</ele>
        <time>2012-01-20T10:41:40Z</time>
      </trkpt>
      <trkpt lat="47.29152" lon="4.97332">
        <ele>353.199</ele>
        <time>2012-01-20T10:41:51Z</time>
      </trkpt>
      <trkpt lat="47.29147" lon="4.97345">
        <ele>355.958</ele>
        <time>2012-01-20T10:42:02Z</time>
      </trkpt>
      <trkpt lat="47.29132" lon="4.97363">
        <ele>352.158</ele>
        <time>2012-01-20T10:42:13Z</time>
      </trkpt>
      <trkpt lat="47.29117" lon="4.97387">
        <ele>351.738</ele>
        <time>2012-01-20T10:42:24Z</time>
      </trkpt>
      <trkpt lat="47.29108" lon="4.97407">
        <ele>351.55</ele>
        <time>2012-01-20T10:42:35Z</time>
      </trkpt>
      <trkpt lat="47.291" lon="4.9743">
        <ele>348.689</ele>
        <time>2012-01-20T10:42:46Z</time>
      </trkpt>
      <trkpt lat="47.29088" lon="4.97445">
        <ele>345.757</ele>
        <time>2012-01-20T10:42:57Z</time>
      </trkpt>
      <trkpt lat="47.29082" lon="4.9746">
        <ele>343.776</ele>
        <time>2012-01-20T10:43:08Z</time>
      </trkpt>
      <trkpt lat="47.29073" lon="4.97485">
        <ele>341.433</ele>
        <time>2012-01-20T10:43:19Z</time>
      </trkpt>
      <trkpt lat="47.29062" lon="4.975">
        <ele>339.891</ele>
        <time>2012-01-20T10:43:30Z</time>
      </trkpt>
      <trkpt lat="47.29057" lon="4.97515">
        <ele>338.458</ele>
        <time>2012-01-20T10:43:41Z</time>
      </trkpt>
      <trkpt lat="47.29043" lon="4.9753">
        <ele>337.407</ele>
        <time>2012-01-20T10:43:52Z</time>
      </trkpt>
      <trkpt lat="47.29038" lon="4.97557">
        <ele>336.371</ele>
        <time>2012-01-20T10:44:03Z</time>
      </trkpt>
      <trkpt lat="47.29032" lon="4.97573">
        <ele>337.363</ele>
        <time>2012-01-20T10:44:14Z</time>
      </trkpt>
      <trkpt lat="47.29022" lon="4.97585">
        <ele>336.909</ele>
        <time>2012-01-20T10:44:25Z</time>
      </trkpt>
      <trkpt lat="47.29012" lon="4.97603">
        <ele>333.57</ele>
        <time>2012-01-20T10:44:36Z</time>
      </trkpt>
      <trkpt lat="47.29007" lon="4.97623">
        <ele>335.577</ele>
        <time>2012-01-20T10:44:47Z</time>
      </trkpt>
      <trkpt lat="47.29003" lon="4.97637">
        <ele>337.362</ele>
        <time>2012-01-20T10:44:58Z</time>
      </trkpt>
      <trkpt lat="47.28993" lon="4.97657">
        <ele>337.748</ele>
        <time>2012-01-20T10:45:09Z</time>
      </trkpt>
      <trkpt lat="47.28985" lon="4.97672">
        <ele>335.613</ele>
        <time>2012-01-20T10:45:20Z</time>
      </trkpt>
      <trkpt lat="47.28975" lon="4.97685">
        <ele>332.195</ele>
        <time>2012-01-20T10:45:31Z</time>
      </trkpt>
      <trkpt lat="47.2896" lon="4.97707">
        <ele>327.132</ele>
        <time>2012-01-20T10:45:42Z</time>
      </trkpt>
      <trkpt lat="47.28943" lon="4.97725">
        <ele>321.812</ele>
        <time>2012-01-20T10:45:53Z</time>
      </trkpt>
      <trkpt lat="47.28928" lon="4.97743">
        <ele>321.975</ele>
        <time>2012-01-20T10:46:04Z</time>
      </trkpt>
      <trkpt lat="47.2892" lon="4.97755">
        <ele>323.094</ele>
        <time>2012-01-20T10:46:15Z</time>
      </trkpt>
      <trkpt lat="47.28915" lon="4.97772">
        <ele>331.192</ele>
        <time>2012-01-20T10:46:26Z</time>
      </trkpt>
      <trkpt lat="47.28908" lon="4.97787">
        <ele>329.577</ele>
        <time>2012-01-20T10:46:37Z</time>
      </trkpt>
      <trkpt lat="47.28895" lon="4.97807">
        <ele>329.233</ele>
        <time>2012-01-20T10:46:48Z</time>
      </trkpt>
      <trkpt lat="47.2888" lon="4.97825">
        <ele>323.864</ele>
        <time>2012-01-20T10:46:59Z</time>
      </trkpt>
      <trkpt lat="47.28868" lon="4.97842">
        <ele>321.369</ele>
        <time>2012-01-20T10:47:10Z</time>
      </trkpt>
      <trkpt lat="47.28857" lon="4.97862">
        <ele>322.638</ele>
        <time>2012-01-20T10:47:21Z</time>
      </trkpt>
      <trkpt lat="47.28842" lon="4.97873">
        <ele>320.92</ele>
        <time>2012-01-20T10:47:32Z</time>
      </trkpt>
      <trkpt lat="47.2883" lon="4.97885">
        <ele>321.775</ele>
        <time>2012-01-20T10:47:43Z</time>
      </trkpt>
      <trkpt lat="47.2882" lon="4.97898">
        <ele>321.759</ele>
        <time>2012-01-20T10:47:54Z</time>
      </trkpt>
      <trkpt lat="47.28815" lon="4.97893">
        <ele>322.029</ele>
        <time>2012-01-20T10:48:05Z</time>
      </trkpt>
      <trkpt lat="47.288" lon="4.97905">
        <ele>321.274</ele>
        <time>2012-01-20T10:48:16Z</time>
      </trkpt>
      <trkpt lat="47.28782" lon="4.9792">
        <ele>319.374</ele>
        <time>2012-01-20T10:48:27Z</time>
      </trkpt>
      <trkpt lat="47.28765" lon="4.97942">
        <ele>318.757</ele>
        <time>2012-01-20T10:48:38Z</time>
      </trkpt>
      <trkpt lat="47.28747" lon="4.97952">
        <ele>317.279</ele>
        <time>2012-01-20T10:48:49Z</time>
      </trkpt>
      <trkpt lat="47.28728" lon="4.97967">
        <ele>314.306</ele>
        <time>2012-01-20T10:49:00Z</time>
      </trkpt>
      <trkpt lat="47.28712" lon="4.97977">
        <ele>311.552</ele>
        <time>2012-01-20T10:49:11Z</time>
      </trkpt>
      <trkpt lat="47.28693" lon="4.97995">
        <ele>309.076</ele>
        <time>2012-01-20T10:49:22Z</time>
      </trkpt>
      <trkpt lat="47.28675" lon="4.98012">
        <ele>308.733</ele>
        <time>2012-01-20T10:49:33Z</time>
      </trkpt>
      <trkpt lat="47.28662" lon="4.98027">
        <ele>312.536</ele>
        <time>2012-01-20T10:49:44Z</time>
      </trkpt>
      <trkpt lat="47.28648" lon="4.98042">
        <ele>316.991</ele>
        <time>2012-01-20T10:49:55Z</time>
      </trkpt>
      <trkpt lat="47.28632" lon="4.98055">
        <ele>319.136</ele>
        <time>2012-01-20T10:50:06Z</time>
      </trkpt>
      <trkpt lat="47.28613" lon="4.9806">
        <ele>321.278</ele>
        <time>2012-01-20T10:50:17Z</time>
      </trkpt>
      <trkpt lat="47.28595" lon="4.98082">
        <ele>322.05</ele>
        <time>2012-01-20T10:50:28Z</time>
      </trkpt>
      <trkpt lat="47.28587" lon="4.9809">
        <ele>324.307</ele>
        <time>2012-01-20T10:50:39Z</time>
      </trkpt>
      <trkpt lat="47.2857" lon="4.98103">
        <ele>321.956</ele>
        <time>2012-01-20T10:50:50Z</time>
      </trkpt>
      <trkpt lat="47.28552" lon="4.9812">
        <ele>316.657</ele>
        <time>2012-01-20T10:51:01Z</time>
      </trkpt>
      <trkpt lat="47.28542" lon="4.98138">
        <ele>317.892</ele>
        <time>2012-01-20T10:51:12Z</time>
      </trkpt>
      <trkpt lat="47.28522" lon="4.98148">
        <ele>313.021</ele>
        <time>2012-01-20T10:51:23Z</time>
      </trkpt>
      <trkpt lat="47.28503" lon="4.98162">
        <ele>309.036</ele>
        <time>2012-01-20T10:51:34Z</time>
      </trkpt>
      <trkpt lat="47.28488" lon="4.98173">
        <ele>310.609</ele>
        <time>2012-01-20T10:51:45Z</time>
      </trkpt>
      <trkpt lat="47.28473" lon="4.98187">
        <ele>306.343</ele>
        <time>2012-01-20T10:51:56Z</time>
      </trkpt>
      <trkpt lat="47.28463" lon="4.98198">
        <ele>306.53</ele>
        <time>2012-01-20T10:52:07Z</time>
      </trkpt>
      <trkpt lat="47.28453" lon="4.98217">
        <ele>304.321</ele>
        <time>2012-01-20T10:52:18Z</time>
      </trkpt>
      <trkpt lat="47.28443" lon="4.9824">
        <ele>300.794</ele>
        <time>2012-01-20T10:52:29Z</time>
      </trkpt>
      <trkpt lat="47.28437" lon="4.9826">
        <ele>299.5</ele>
        <time>2012-01-20T10:52:40Z</time>
      </trkpt>
      <trkpt lat="47.28423" lon="4.98282">
        <ele>297.637</ele>
        <time>2012-01-20T10:52:51Z</time>
      </trkpt>
      <trkpt lat="47.2841" lon="4.983">
        <ele>299.363</ele>
        <time>2012-01-20T10:53:02Z</time>
      </trkpt>
      <trkpt lat="47.28395" lon="4.98315">
        <ele>299.38</ele>
        <time>2012-01-20T10:53:13Z</time>
      </trkpt>
      <trkpt lat="47.28382" lon="4.9833">
        <ele>297.416</ele>
        <time>2012-01-20T10:53:24Z</time>
      </trkpt>
      <trkpt lat="47.28367" lon="4.98342">
        <ele>296.403</ele>
        <time>2012-01-20T10:53:35Z</time>
      </trkpt>
      <trkpt lat="47.28355" lon="4.98353">
        <ele>293.497</ele>
        <time>2012-01-20T10:53:46Z</time>
      </trkpt>
      <trkpt lat="47.28343" lon="4.98363">
        <ele>289.805</ele>
        <time>2012-01-20T10:53:57Z</time>
      </trkpt>
      <trkpt lat="47.2833" lon="4.98373">
        <ele>290.48</ele>
        <time>2012-01-20T10:54:08Z</time>
      </trkpt>
      <trkpt lat="47.28318" lon="4.98385">
        <ele>290.482</ele>
        <time>2012-01-20T10:54:19Z</time>
      </trkpt>
      <trkpt lat="47.28305" lon="4.98402">
        <ele>293.607</ele>
        <time>2012-01-20T10:54:30Z</time>
      </trkpt>
      <trkpt lat="47.28295" lon="4.9842">
        <ele>295.565</ele>
        <time>2012-01-20T10:54:41Z</time>
      </trkpt>
      <trkpt lat="47.28287" lon="4.98442">
        <ele>296.736</ele>
        <time>2012-01-20T10:54:52Z</time>
      </trkpt>
      <trkpt lat="47.28282" lon="4.98463">
        <ele>297.622</ele>
        <time>2012-01-20T10:55:03Z</time>
      </trkpt>
      <trkpt lat="47.2828" lon="4.98465">
        <ele>300.061</ele>
        <time>2012-01-20T10:55:14Z</time>
      </trkpt>
      <trkpt lat="47.2828" lon="4.98465">
        <ele>300.061</ele>
        <time>2012-01-20T10:55:25Z</time>
      </trkpt>
      <trkpt lat="47.2828" lon="4.98465">
        <ele>300.061</ele>
        <time>2012-01-20T10:55:36Z</time>
      </trkpt>
      <trkpt lat="47.28278" lon="4.98473">
        <ele>299.576</ele>
        <time>2012-01-20T10:55:47Z</time>
      </trkpt>
      <trkpt lat="47.2828" lon="4.98473">
        <ele>299.407</ele>
        <time>2012-01-20T10:55:58Z</time>
      </trkpt>
      <trkpt lat="47.28278" lon="4.98473">
        <ele>299.327</ele>
        <time>2012-01-20T10:56:09Z</time>
      </trkpt>
      <trkpt lat="47.28275" lon="4.98483">
        <ele>298.706</ele>
        <time>2012-01-20T10:56:20Z</time>
      </trkpt>
      <trkpt lat="47.28263" lon="4.98498">
        <ele>296.261</ele>
        <time>2012-01-20T10:56:31Z</time>
      </trkpt>
      <trkpt lat="47.28255" lon="4.9852">
        <ele>294.499</ele>
        <time>2012-01-20T10:56:42Z</time>
      </trkpt>
      <trkpt lat="47.28247" lon="4.9854">
        <ele>292.999</ele>
        <time>2012-01-20T10:56:53Z</time>
      </trkpt>
      <trkpt lat="47.28237" lon="4.98557">
        <ele>293.426</ele>
        <time>2012-01-20T10:57:04Z</time>
      </trkpt>
      <trkpt lat="47.28223" lon="4.98573">
        <ele>287.703</ele>
        <time>2012-01-20T10:57:15Z</time>
      </trkpt>
      <trkpt lat="47.2821" lon="4.98592">
        <ele>285.219</ele>
        <time>2012-01-20T10:57:26Z</time>
      </trkpt>
      <trkpt lat="47.28197" lon="4.98608">
        <ele>284.863</ele>
        <time>2012-01-20T10:57:37Z</time>
      </trkpt>
      <trkpt lat="47.28185" lon="4.98625">
        <ele>284.487</ele>
        <time>2012-01-20T10:57:48Z</time>
      </trkpt>
      <trkpt lat="47.28168" lon="4.98627">
        <ele>282.959</ele>
        <time>2012-01-20T10:57:59Z</time>
      </trkpt>
      <trkpt lat="47.28155" lon="4.98618">
        <ele>283.009</ele>
        <time>2012-01-20T10:58:10Z</time>
      </trkpt>
      <trkpt lat="47.28142" lon="4.98612">
        <ele>282.224</ele>
        <time>2012-01-20T10:58:21Z</time>
      </trkpt>
      <trkpt lat="47.28128" lon="4.98618">
        <ele>282.212</ele>
        <time>2012-01-20T10:58:32Z</time>
      </trkpt>
      <trkpt lat="47.28117" lon="4.98633">
        <ele>281.462</ele>
        <time>2012-01-20T10:58:43Z</time>
      </trkpt>
      <trkpt lat="47.28107" lon="4.98652">
        <ele>280.662</ele>
        <time>2012-01-20T10:58:54Z</time>
      </trkpt>
      <trkpt lat="47.28097" lon="4.98668">
        <ele>279.329</ele>
        <time>2012-01-20T10:59:05Z</time>
      </trkpt>
      <trkpt lat="47.28087" lon="4.98685">
        <ele>278.614</ele>
        <time>2012-01-20T10:59:16Z</time>
      </trkpt>
      <trkpt lat="47.28077" lon="4.98703">
        <ele>279.632</ele>
        <time>2012-01-20T10:59:27Z</time>
      </trkpt>
      <trkpt lat="47.28068" lon="4.98718">
        <ele>280.12</ele>
        <time>2012-01-20T10:59:38Z</time>
      </trkpt>
      <trkpt lat="47.2806" lon="4.98735">
        <ele>280.236</ele>
        <time>2012-01-20T10:59:49Z</time>
      </trkpt>
      <trkpt lat="47.28048" lon="4.98753">
        <ele>280.692</ele>
        <time>2012-01-20T11:00:00Z</time>
      </trkpt>
      <trkpt lat="47.28037" lon="4.98767">
        <ele>279.879</ele>
        <time>2012-01-20T11:00:11Z</time>
      </trkpt>
      <trkpt lat="47.28023" lon="4.98785">
        <ele>280.249</ele>
        <time>2012-01-20T11:00:22Z</time>
      </trkpt>
      <trkpt lat="47.2801" lon="4.988">
        <ele>280.822</ele>
        <time>2012-01-20T11:00:33Z</time>
      </trkpt>
      <trkpt lat="47.27998" lon="4.98815">
        <ele>283.403</ele>
        <time>2012-01-20T11:00:44Z</time>
      </trkpt>
      <trkpt lat="47.27987" lon="4.98828">
        <ele>282.973</ele>
        <time>2012-01-20T11:00:55Z</time>
      </trkpt>
      <trkpt lat="47.27973" lon="4.98843">
        <ele>281.594</ele>
        <time>2012-01-20T11:01:06Z</time>
      </trkpt>
      <trkpt lat="47.27962" lon="4.98862">
        <ele>283.24</ele>
        <time>2012-01-20T11:01:17Z</time>
      </trkpt>
      <trkpt lat="47.2795" lon="4.98877">
        <ele>282.369</ele>
        <time>2012-01-20T11:01:28Z</time>
      </trkpt>
      <trkpt lat="47.27952" lon="4.98898">
        <ele>280.5</ele>
        <time>2012-01-20T11:01:39Z</time>
      </trkpt>
      <trkpt lat="47.27957" lon="4.9892">
        <ele>281.952</ele>
        <time>2012-01-20T11:01:50Z</time>
      </trkpt>
      <trkpt lat="47.27962" lon="4.98942">
        <ele>283.065</ele>
        <time>2012-01-20T11:02:01Z</time>
      </trkpt>
      <trkpt lat="47.27965" lon="4.98965">
        <ele>282.438</ele>
        <time>2012-01-20T11:02:12Z</time>
      </trkpt>
      <trkpt lat="47.27968" lon="4.98988">
        <ele>282.346</ele>
        <time>2012-01-20T11:02:23Z</time>
      </trkpt>
      <trkpt lat="47.2797" lon="4.99012">
        <ele>282.928</ele>
        <time>2012-01-20T11:02:34Z</time>
      </trkpt>
      <trkpt lat="47.27973" lon="4.99035">
        <ele>283.837</ele>
        <time>2012-01-20T11:02:45Z</time>
      </trkpt>
      <trkpt lat="47.27978" lon="4.9906">
        <ele>284.406</ele>
        <time>2012-01-20T11:02:56Z</time>
      </trkpt>
      <trkpt lat="47.27987" lon="4.9908">
        <ele>283.431</ele>
        <time>2012-01-20T11:03:07Z</time>
      </trkpt>
      <trkpt lat="47.27993" lon="4.99095">
        <ele>282.847</ele>
        <time>2012-01-20T11:03:18Z</time>
      </trkpt>
      <trkpt lat="47.28002" lon="4.99117">
        <ele>284.257</ele>
        <time>2012-01-20T11:03:29Z</time>
      </trkpt>
      <trkpt lat="47.28012" lon="4.99138">
        <ele>286.043</ele>
        <time>2012-01-20T11:03:40Z</time>
      </trkpt>
      <trkpt lat="47.28017" lon="4.99157">
        <ele>284.718</ele>
        <time>2012-01-20T11:03:51Z</time>
      </trkpt>
      <trkpt lat="47.28022" lon="4.9918">
        <ele>283.83</ele>
        <time>2012-01-20T11:04:02Z</time>
      </trkpt>
      <trkpt lat="47.28028" lon="4.99202">
        <ele>282.77</ele>
        <time>2012-01-20T11:04:13Z</time>
      </trkpt>
      <trkpt lat="47.28033" lon="4.99225">
        <ele>282.456</ele>
        <time>2012-01-20T11:04:24Z</time>
      </trkpt>
      <trkpt lat="47.28038" lon="4.99245">
        <ele>282.198</ele>
        <time>2012-01-20T11:04:35Z</time>
      </trkpt>
      <trkpt lat="47.28043" lon="4.99263">
        <ele>283.195</ele>
        <time>2012-01-20T11:04:46Z</time>
      </trkpt>
      <trkpt lat="47.2805" lon="4.99283">
        <ele>281.688</ele>
        <time>2012-01-20T11:04:57Z</time>
      </trkpt>
      <trkpt lat="47.2806" lon="4.99305">
        <ele>281.204</ele>
        <time>2012-01-20T11:05:08Z</time>
      </trkpt>
      <trkpt lat="47.2807" lon="4.99327">
        <ele>281.238</ele>
        <time>2012-01-20T11:05:19Z</time>
      </trkpt>
      <trkpt lat="47.28077" lon="4.99348">
        <ele>281.508</ele>
        <time>2012-01-20T11:05:30Z</time>
      </trkpt>
      <trkpt lat="47.28083" lon="4.99372">
        <ele>282.754</ele>
        <time>2012-01-20T11:05:41Z</time>
      </trkpt>
      <trkpt lat="47.28088" lon="4.99395">
        <ele>284.801</ele>
        <time>2012-01-20T11:05:52Z</time>
      </trkpt>
      <trkpt lat="47.28095" lon="4.99417">
        <ele>284.012</ele>
        <time>2012-01-20T11:06:03Z</time>
      </trkpt>
      <trkpt lat="47.281" lon="4.99437">
        <ele>282.63</ele>
        <time>2012-01-20T11:06:14Z</time>
      </trkpt>
      <trkpt lat="47.28107" lon="4.99457">
        <ele>282.61</ele>
        <time>2012-01-20T11:06:25Z</time>
      </trkpt>
      <trkpt lat="47.28115" lon="4.99478">
        <ele>280.865</ele>
        <time>2012-01-20T11:06:36Z</time>
      </trkpt>
      <trkpt lat="47.28123" lon="4.99503">
        <ele>280.583</ele>
        <time>2012-01-20T11:06:47Z</time>
      </trkpt>
      <trkpt lat="47.28132" lon="4.99523">
        <ele>280.172</ele>
        <time>2012-01-20T11:06:58Z</time>
      </trkpt>
      <trkpt lat="47.28138" lon="4.99542">
        <ele>279.211</ele>
        <time>2012-01-20T11:07:09Z</time>
      </trkpt>
      <trkpt lat="47.28145" lon="4.9956">
        <ele>278.107</ele>
        <time>2012-01-20T11:07:20Z</time>
      </trkpt>
      <trkpt lat="47.28153" lon="4.99583">
        <ele>276.744</ele>
        <time>2012-01-20T11:07:31Z</time>
      </trkpt>
      <trkpt lat="47.28163" lon="4.99603">
        <ele>275.358</ele>
        <time>2012-01-20T11:07:42Z</time>
      </trkpt>
      <trkpt lat="47.28175" lon="4.9962">
        <ele>276.089</ele>
        <time>2012-01-20T11:07:53Z</time>
      </trkpt>
      <trkpt lat="47.28187" lon="4.99637">
        <ele>275.245</ele>
        <time>2012-01-20T11:08:04Z</time>
      </trkpt>
      <trkpt lat="47.28198" lon="4.99653">
        <ele>274.654</ele>
        <time>2012-01-20T11:08:15Z</time>
      </trkpt>
      <trkpt lat="47.2821" lon="4.99668">
        <ele>274.983</ele>
        <time>2012-01-20T11:08:26Z</time>
      </trkpt>
      <trkpt lat="47.28223" lon="4.99688">
        <ele>274.473</ele>
        <time>2012-01-20T11:08:37Z</time>
      </trkpt>
      <trkpt lat="47.28233" lon="4.99708">
        <ele>273.198</ele>
        <time>2012-01-20T11:08:48Z</time>
      </trkpt>
      <trkpt lat="47.2824" lon="4.99723">
        <ele>273.973</ele>
        <time>2012-01-20T11:08:59Z</time>
      </trkpt>
      <trkpt lat="47.28252" lon="4.99745">
        <ele>274.495</ele>
        <time>2012-01-20T11:09:10Z</time>
      </trkpt>
      <trkpt lat="47.28263" lon="4.99768">
        <ele>275.434</ele>
        <time>2012-01-20T11:09:21Z</time>
      </trkpt>
      <trkpt lat="47.28277" lon="4.9978">
        <ele>276.85</ele>
        <time>2012-01-20T11:09:32Z</time>
      </trkpt>
      <trkpt lat="47.28287" lon="4.99777">
        <ele>275.47</ele>
        <time>2012-01-20T11:09:43Z</time>
      </trkpt>
      <trkpt lat="47.28298" lon="4.9977">
        <ele>273.914</ele>
        <time>2012-01-20T11:09:54Z</time>
      </trkpt>
      <trkpt lat="47.28312" lon="4.99765">
        <ele>273.748</ele>
        <time>2012-01-20T11:10:05Z</time>
      </trkpt>
      <trkpt lat="47.28328" lon="4.99773">
        <ele>275.056</ele>
        <time>2012-01-20T11:10:16Z</time>
      </trkpt>
      <trkpt lat="47.28343" lon="4.99785">
        <ele>273.753</ele>
        <time>2012-01-20T11:10:27Z</time>
      </trkpt>
      <trkpt lat="47.28355" lon="4.9979">
        <ele>275.077</ele>
        <time>2012-01-20T11:10:38Z</time>
      </trkpt>
      <trkpt lat="47.28368" lon="4.99802">
        <ele>274.251</ele>
        <time>2012-01-20T11:10:49Z</time>
      </trkpt>
      <trkpt lat="47.28388" lon="4.99823">
        <ele>273.8</ele>
        <time>2012-01-20T11:11:00Z</time>
      </trkpt>
      <trkpt lat="47.28402" lon="4.99832">
        <ele>271.522</ele>
        <time>2012-01-20T11:11:11Z</time>
      </trkpt>
      <trkpt lat="47.28418" lon="4.99842">
        <ele>271.89</ele>
        <time>2012-01-20T11:11:22Z</time>
      </trkpt>
      <trkpt lat="47.2843" lon="4.9985">
        <ele>271.096</ele>
        <time>2012-01-20T11:11:33Z</time>
      </trkpt>
      <trkpt lat="47.28445" lon="4.9986">
        <ele>269.41</ele>
        <time>2012-01-20T11:11:44Z</time>
      </trkpt>
      <trkpt lat="47.28458" lon="4.99872">
        <ele>269.417</ele>
        <time>2012-01-20T11:11:55Z</time>
      </trkpt>
      <trkpt lat="47.28473" lon="4.99887">
        <ele>268.871</ele>
        <time>2012-01-20T11:12:06Z</time>
      </trkpt>
      <trkpt lat="47.28487" lon="4.99915">
        <ele>268.571</ele>
        <time>2012-01-20T11:12:17Z</time>
      </trkpt>
      <trkpt lat="47.28507" lon="4.9994">
        <ele>269.688</ele>
        <time>2012-01-20T11:12:28Z</time>
      </trkpt>
      <trkpt lat="47.28517" lon="4.99943">
        <ele>271.294</ele>
        <time>2012-01-20T11:12:39Z</time>
      </trkpt>
      <trkpt lat="47.28532" lon="4.99948">
        <ele>272.451</ele>
        <time>2012-01-20T11:12:50Z</time>
      </trkpt>
      <trkpt lat="47.28547" lon="4.99957">
        <ele>270.072</ele>
        <time>2012-01-20T11:13:01Z</time>
      </trkpt>
      <trkpt lat="47.28563" lon="4.99963">
        <ele>268.988</ele>
        <time>2012-01-20T11:13:12Z</time>
      </trkpt>
      <trkpt lat="47.28578" lon="4.9997">
        <ele>271.508</ele>
        <time>2012-01-20T11:13:23Z</time>
      </trkpt>
      <trkpt lat="47.28595" lon="4.99977">
        <ele>267.492</ele>
        <time>2012-01-20T11:13:34Z</time>
      </trkpt>
      <trkpt lat="47.2861" lon="4.99983">
        <ele>266.714</ele>
        <time>2012-01-20T11:13:45Z</time>
      </trkpt>
      <trkpt lat="47.2862" lon="4.99983">
        <ele>267.6</ele>
        <time>2012-01-20T11:13:56Z</time>
      </trkpt>
      <trkpt lat="47.28637" lon="4.9999">
        <ele>268.329</ele>
        <time>2012-01-20T11:14:07Z</time>
      </trkpt>
      <trkpt lat="47.28655" lon="5.00003">
        <ele>268.353</ele>
        <time>2012-01-20T11:14:18Z</time>
      </trkpt>
      <trkpt lat="47.28672" lon="5.00015">
        <ele>268.192</ele>
        <time>2012-01-20T11:14:29Z</time>
      </trkpt>
      <trkpt lat="47.28687" lon="5.00025">
        <ele>268.608</ele>
        <time>2012-01-20T11:14:40Z</time>
      </trkpt>
      <trkpt lat="47.28702" lon="5.00037">
        <ele>269.024</ele>
        <time>2012-01-20T11:14:51Z</time>
      </trkpt>
      <trkpt lat="47.28717" lon="5.0005">
        <ele>270.204</ele>
        <time>2012-01-20T11:15:02Z</time>
      </trkpt>
      <trkpt lat="47.28732" lon="5.0006">
        <ele>269.352</ele>
        <time>2012-01-20T11:15:13Z</time>
      </trkpt>
      <trkpt lat="47.28747" lon="5.00065">
        <ele>268.583</ele>
        <time>2012-01-20T11:15:24Z</time>
      </trkpt>
      <trkpt lat="47.2876" lon="5.00072">
        <ele>269.634</ele>
        <time>2012-01-20T11:15:35Z</time>
      </trkpt>
      <trkpt lat="47.28778" lon="5.0008">
        <ele>270.526</ele>
        <time>2012-01-20T11:15:46Z</time>
      </trkpt>
      <trkpt lat="47.28795" lon="5.00083">
        <ele>272.022</ele>
        <time>2012-01-20T11:15:57Z</time>
      </trkpt>
      <trkpt lat="47.28812" lon="5.00085">
        <ele>272.008</ele>
        <time>2012-01-20T11:16:08Z</time>
      </trkpt>
      <trkpt lat="47.28825" lon="5.00088">
        <ele>271.424</ele>
        <time>2012-01-20T11:16:19Z</time>
      </trkpt>
      <trkpt lat="47.28842" lon="5.00092">
        <ele>271.632</ele>
        <time>2012-01-20T11:16:30Z</time>
      </trkpt>
      <trkpt lat="47.28858" lon="5.00093">
        <ele>271.72</ele>
        <time>2012-01-20T11:16:41Z</time>
      </trkpt>
      <trkpt lat="47.28873" lon="5.00097">
        <ele>270.707</ele>
        <time>2012-01-20T11:16:52Z</time>
      </trkpt>
      <trkpt lat="47.2889" lon="5.00098">
        <ele>271.287</ele>
        <time>2012-01-20T11:17:03Z</time>
      </trkpt>
      <trkpt lat="47.28903" lon="5.00103">
        <ele>269.545</ele>
        <time>2012-01-20T11:17:14Z</time>
      </trkpt>
      <trkpt lat="47.28912" lon="5.00105">
        <ele>268.838</ele>
        <time>2012-01-20T11:17:25Z</time>
      </trkpt>
      <trkpt lat="47.28913" lon="5.00105">
        <ele>268.439</ele>
        <time>2012-01-20T11:17:36Z</time>
      </trkpt>
      <trkpt lat="47.28927" lon="5.00112">
        <ele>269.474</ele>
        <time>2012-01-20T11:17:47Z</time>
      </trkpt>
      <trkpt lat="47.28942" lon="5.00117">
        <ele>270.463</ele>
        <time>2012-01-20T11:17:58Z</time>
      </trkpt>
      <trkpt lat="47.28953" lon="5.00123">
        <ele>271.459</ele>
        <time>2012-01-20T11:18:09Z</time>
      </trkpt>
      <trkpt lat="47.28968" lon="5.0013">
        <ele>269.206</ele>
        <time>2012-01-20T11:18:20Z</time>
      </trkpt>
      <trkpt lat="47.28982" lon="5.00137">
        <ele>268.697</ele>
        <time>2012-01-20T11:18:31Z</time>
      </trkpt>
      <trkpt lat="47.28992" lon="5.00142">
        <ele>268.995</ele>
        <time>2012-01-20T11:18:42Z</time>
      </trkpt>
      <trkpt lat="47.29008" lon="5.00148">
        <ele>268.375</ele>
        <time>2012-01-20T11:18:53Z</time>
      </trkpt>
      <trkpt lat="47.29023" lon="5.00153">
        <ele>269.024</ele>
        <time>2012-01-20T11:19:04Z</time>
      </trkpt>
      <trkpt lat="47.29037" lon="5.00157">
        <ele>269.96</ele>
        <time>2012-01-20T11:19:15Z</time>
      </trkpt>
      <trkpt lat="47.29052" lon="5.00163">
        <ele>271.349</ele>
        <time>2012-01-20T11:19:26Z</time>
      </trkpt>
      <trkpt lat="47.2907" lon="5.00168">
        <ele>270.764</ele>
        <time>2012-01-20T11:19:37Z</time>
      </trkpt>
      <trkpt lat="47.29082" lon="5.00175">
        <ele>269.124</ele>
        <time>2012-01-20T11:19:48Z</time>
      </trkpt>
      <trkpt lat="47.29098" lon="5.0018">
        <ele>270.365</ele>
        <time>2012-01-20T11:19:59Z</time>
      </trkpt>
      <trkpt lat="47.2911" lon="5.00183">
        <ele>269.804</ele>
        <time>2012-01-20T11:20:10Z</time>
      </trkpt>
      <trkpt lat="47.29127" lon="5.00193">
        <ele>270.516</ele>
        <time>2012-01-20T11:20:21Z</time>
      </trkpt>
      <trkpt lat="47.29143" lon="5.00195">
        <ele>272.737</ele>
        <time>2012-01-20T11:20:32Z</time>
      </trkpt>
      <trkpt lat="47.29153" lon="5.00197">
        <ele>272.323</ele>
        <time>2012-01-20T11:20:43Z</time>
      </trkpt>
      <trkpt lat="47.29168" lon="5.00188">
        <ele>270.633</ele>
        <time>2012-01-20T11:20:54Z</time>
      </trkpt>
      <trkpt lat="47.29177" lon="5.00198">
        <ele>269.333</ele>
        <time>2012-01-20T11:21:05Z</time>
      </trkpt>
      <trkpt lat="47.29185" lon="5.0021">
        <ele>268.945</ele>
        <time>2012-01-20T11:21:16Z</time>
      </trkpt>
      <trkpt lat="47.29195" lon="5.00223">
        <ele>266.674</ele>
        <time>2012-01-20T11:21:27Z</time>
      </trkpt>
      <trkpt lat="47.29198" lon="5.00237">
        <ele>264.129</ele>
        <time>2012-01-20T11:21:38Z</time>
      </trkpt>
      <trkpt lat="47.29193" lon="5.00253">
        <ele>263.748</ele>
        <time>2012-01-20T11:21:49Z</time>
      </trkpt>
      <trkpt lat="47.2919" lon="5.00277">
        <ele>264.773</ele>
        <time>2012-01-20T11:22:00Z</time>
      </trkpt>
      <trkpt lat="47.29187" lon="5.00303">
        <ele>263.912</ele>
        <time>2012-01-20T11:22:11Z</time>
      </trkpt>
      <trkpt lat="47.29183" lon="5.00327">
        <ele>265.54</ele>
        <time>2012-01-20T11:22:22Z</time>
      </trkpt>
      <trkpt lat="47.29185" lon="5.0035">
        <ele>266.381</ele>
        <time>2012-01-20T11:22:33Z</time>
      </trkpt>
    </trkseg>
  </trk>
</gpx>